<?xml version="1.0" encoding="UTF-8" standalone="no" ?><gpx xmlns="http://www.topografix.com/GPX/1/1" xmlns:gpxx="http://www.garmin.com/xmlschemas/GpxExtensions/v3" xmlns:wptx1="http://www.garmin.com/xmlschemas/WaypointExtension/v1" xmlns:gpxtpx="http://www.garmin.com/xmlschemas/TrackPointExtension/v1" creator="GuideVTT.com" version="1.1" xmlns:xsi="http://www.w3.org/2001/XMLSchema-instance" xsi:schemaLocation="http://www.topografix.com/GPX/1/1 http://www.topografix.com/GPX/1/1/gpx.xsd http://www.garmin.com/xmlschemas/GpxExtensions/v3 http://www8.garmin.com/xmlschemas/GpxExtensionsv3.xsd http://www.garmin.com/xmlschemas/WaypointExtension/v1 http://www8.garmin.com/xmlschemas/WaypointExtensionv1.xsd http://www.garmin.com/xmlschemas/TrackPointExtension/v1 http://www.garmin.com/xmlschemas/TrackPointExtensionv1.xsd">
<metadata><link href="http://www.garmin.com"><text>Garmin International</text></link><time>2013-06-22T15:13:50Z</time></metadata>
<trk><name>003-delemont-stursanne.gpx</name><extensions><gpxx:TrackExtension><gpxx:DisplayColor>Cyan</gpxx:DisplayColor></gpxx:TrackExtension></extensions><trkseg>
<trkpt lat="47.37191297" lon="7.34036797"><ele></ele><time>2014-6-18T9:7:41Z</time></trkpt>
<trkpt lat="47.37192596" lon="7.34036403"><ele></ele><time>2014-6-18T9:7:44Z</time></trkpt>
<trkpt lat="47.37227599" lon="7.34022103"><ele></ele><time>2014-6-18T9:7:47Z</time></trkpt>
<trkpt lat="47.37262401" lon="7.34008801"><ele></ele><time>2014-6-18T9:7:50Z</time></trkpt>
<trkpt lat="47.37296498" lon="7.33991400"><ele></ele><time>2014-6-18T9:7:53Z</time></trkpt>
<trkpt lat="47.37308300" lon="7.33988601"><ele></ele><time>2014-6-18T9:7:56Z</time></trkpt>
<trkpt lat="47.37328199" lon="7.33986103"><ele></ele><time>2014-6-18T9:7:59Z</time></trkpt>
<trkpt lat="47.37349799" lon="7.33983999"><ele></ele><time>2014-6-18T9:8:2Z</time></trkpt>
<trkpt lat="47.37383997" lon="7.33965098"><ele></ele><time>2014-6-18T9:8:5Z</time></trkpt>
<trkpt lat="47.37418103" lon="7.33944898"><ele></ele><time>2014-6-18T9:8:8Z</time></trkpt>
<trkpt lat="47.37451698" lon="7.33926499"><ele></ele><time>2014-6-18T9:8:11Z</time></trkpt>
<trkpt lat="47.37461002" lon="7.33908797"><ele></ele><time>2014-6-18T9:8:14Z</time></trkpt>
<trkpt lat="47.37472099" lon="7.33876803"><ele></ele><time>2014-6-18T9:8:17Z</time></trkpt>
<trkpt lat="47.37494001" lon="7.33833200"><ele></ele><time>2014-6-18T9:8:20Z</time></trkpt>
<trkpt lat="47.37516699" lon="7.33790704"><ele></ele><time>2014-6-18T9:8:23Z</time></trkpt>
<trkpt lat="47.37525702" lon="7.33777897"><ele></ele><time>2014-6-18T9:8:26Z</time></trkpt>
<trkpt lat="47.37549003" lon="7.33733397"><ele></ele><time>2014-6-18T9:8:29Z</time></trkpt>
<trkpt lat="47.37565700" lon="7.33686400"><ele></ele><time>2014-6-18T9:8:32Z</time></trkpt>
<trkpt lat="47.37582799" lon="7.33638296"><ele></ele><time>2014-6-18T9:8:35Z</time></trkpt>
<trkpt lat="47.37598700" lon="7.33589396"><ele></ele><time>2014-6-18T9:8:38Z</time></trkpt>
<trkpt lat="47.37618799" lon="7.33544896"><ele></ele><time>2014-6-18T9:8:41Z</time></trkpt>
<trkpt lat="47.37649502" lon="7.33517596"><ele></ele><time>2014-6-18T9:8:44Z</time></trkpt>
<trkpt lat="47.37680499" lon="7.33490498"><ele></ele><time>2014-6-18T9:8:47Z</time></trkpt>
<trkpt lat="47.37705099" lon="7.33453299"><ele></ele><time>2014-6-18T9:8:50Z</time></trkpt>
<trkpt lat="47.37708603" lon="7.33397802"><ele></ele><time>2014-6-18T9:8:53Z</time></trkpt>
<trkpt lat="47.37708301" lon="7.33340001"><ele></ele><time>2014-6-18T9:8:56Z</time></trkpt>
<trkpt lat="47.37707597" lon="7.33282199"><ele></ele><time>2014-6-18T9:8:59Z</time></trkpt>
<trkpt lat="47.37706902" lon="7.33226803"><ele></ele><time>2014-6-18T9:9:2Z</time></trkpt>
<trkpt lat="47.37705602" lon="7.33169203"><ele></ele><time>2014-6-18T9:9:5Z</time></trkpt>
<trkpt lat="47.37704496" lon="7.33111602"><ele></ele><time>2014-6-18T9:9:8Z</time></trkpt>
<trkpt lat="47.37703599" lon="7.33058201"><ele></ele><time>2014-6-18T9:9:11Z</time></trkpt>
<trkpt lat="47.37702099" lon="7.33002302"><ele></ele><time>2014-6-18T9:9:14Z</time></trkpt>
<trkpt lat="47.37697799" lon="7.32947602"><ele></ele><time>2014-6-18T9:9:17Z</time></trkpt>
<trkpt lat="47.37693499" lon="7.32894603"><ele></ele><time>2014-6-18T9:9:20Z</time></trkpt>
<trkpt lat="47.37688696" lon="7.32839400"><ele></ele><time>2014-6-18T9:9:23Z</time></trkpt>
<trkpt lat="47.37683197" lon="7.32784004"><ele></ele><time>2014-6-18T9:9:26Z</time></trkpt>
<trkpt lat="47.37678898" lon="7.32729698"><ele></ele><time>2014-6-18T9:9:29Z</time></trkpt>
<trkpt lat="47.37673902" lon="7.32674796"><ele></ele><time>2014-6-18T9:9:32Z</time></trkpt>
<trkpt lat="47.37669099" lon="7.32619802"><ele></ele><time>2014-6-18T9:9:35Z</time></trkpt>
<trkpt lat="47.37662704" lon="7.32565404"><ele></ele><time>2014-6-18T9:9:38Z</time></trkpt>
<trkpt lat="47.37658697" lon="7.32518801"><ele></ele><time>2014-6-18T9:9:41Z</time></trkpt>
<trkpt lat="47.37655596" lon="7.32484200"><ele></ele><time>2014-6-18T9:9:44Z</time></trkpt>
<trkpt lat="47.37650600" lon="7.32428603"><ele></ele><time>2014-6-18T9:9:47Z</time></trkpt>
<trkpt lat="47.37646099" lon="7.32375302"><ele></ele><time>2014-6-18T9:9:50Z</time></trkpt>
<trkpt lat="47.37640701" lon="7.32321097"><ele></ele><time>2014-6-18T9:9:53Z</time></trkpt>
<trkpt lat="47.37635898" lon="7.32268400"><ele></ele><time>2014-6-18T9:9:56Z</time></trkpt>
<trkpt lat="47.37629503" lon="7.32211503"><ele></ele><time>2014-6-18T9:9:59Z</time></trkpt>
<trkpt lat="47.37625304" lon="7.32152796"><ele></ele><time>2014-6-18T9:10:2Z</time></trkpt>
<trkpt lat="47.37623803" lon="7.32109001"><ele></ele><time>2014-6-18T9:10:5Z</time></trkpt>
<trkpt lat="47.37621096" lon="7.32077803"><ele></ele><time>2014-6-18T9:10:8Z</time></trkpt>
<trkpt lat="47.37619503" lon="7.32063403"><ele></ele><time>2014-6-18T9:10:11Z</time></trkpt>
<trkpt lat="47.37616897" lon="7.32050101"><ele></ele><time>2014-6-18T9:10:14Z</time></trkpt>
<trkpt lat="47.37611901" lon="7.32020496"><ele></ele><time>2014-6-18T9:10:17Z</time></trkpt>
<trkpt lat="47.37599697" lon="7.31981596"><ele></ele><time>2014-6-18T9:10:20Z</time></trkpt>
<trkpt lat="47.37583403" lon="7.31933903"><ele></ele><time>2014-6-18T9:10:23Z</time></trkpt>
<trkpt lat="47.37559598" lon="7.31880401"><ele></ele><time>2014-6-18T9:10:26Z</time></trkpt>
<trkpt lat="47.37548802" lon="7.31843898"><ele></ele><time>2014-6-18T9:10:29Z</time></trkpt>
<trkpt lat="47.37541803" lon="7.31819297"><ele></ele><time>2014-6-18T9:10:32Z</time></trkpt>
<trkpt lat="47.37533597" lon="7.31792299"><ele></ele><time>2014-6-18T9:10:35Z</time></trkpt>
<trkpt lat="47.37516004" lon="7.31744296"><ele></ele><time>2014-6-18T9:10:38Z</time></trkpt>
<trkpt lat="47.37501101" lon="7.31696201"><ele></ele><time>2014-6-18T9:10:41Z</time></trkpt>
<trkpt lat="47.37488201" lon="7.31643696"><ele></ele><time>2014-6-18T9:10:44Z</time></trkpt>
<trkpt lat="47.37478000" lon="7.31592500"><ele></ele><time>2014-6-18T9:10:47Z</time></trkpt>
<trkpt lat="47.37468604" lon="7.31540197"><ele></ele><time>2014-6-18T9:10:50Z</time></trkpt>
<trkpt lat="47.37471504" lon="7.31485899"><ele></ele><time>2014-6-18T9:10:53Z</time></trkpt>
<trkpt lat="47.37478201" lon="7.31433696"><ele></ele><time>2014-6-18T9:10:56Z</time></trkpt>
<trkpt lat="47.37483297" lon="7.31380597"><ele></ele><time>2014-6-18T9:10:59Z</time></trkpt>
<trkpt lat="47.37478796" lon="7.31328101"><ele></ele><time>2014-6-18T9:11:2Z</time></trkpt>
<trkpt lat="47.37466902" lon="7.31291296"><ele></ele><time>2014-6-18T9:11:5Z</time></trkpt>
<trkpt lat="47.37463097" lon="7.31281799"><ele></ele><time>2014-6-18T9:11:8Z</time></trkpt>
<trkpt lat="47.37455696" lon="7.31245204"><ele></ele><time>2014-6-18T9:11:11Z</time></trkpt>
<trkpt lat="47.37451002" lon="7.31228398"><ele></ele><time>2014-6-18T9:11:14Z</time></trkpt>
<trkpt lat="47.37437398" lon="7.31177604"><ele></ele><time>2014-6-18T9:11:17Z</time></trkpt>
<trkpt lat="47.37431103" lon="7.31155199"><ele></ele><time>2014-6-18T9:11:20Z</time></trkpt>
<trkpt lat="47.37418296" lon="7.31107900"><ele></ele><time>2014-6-18T9:11:23Z</time></trkpt>
<trkpt lat="47.37413703" lon="7.31091002"><ele></ele><time>2014-6-18T9:11:26Z</time></trkpt>
<trkpt lat="47.37400199" lon="7.31040400"><ele></ele><time>2014-6-18T9:11:29Z</time></trkpt>
<trkpt lat="47.37386000" lon="7.30990897"><ele></ele><time>2014-6-18T9:11:32Z</time></trkpt>
<trkpt lat="47.37373704" lon="7.30947303"><ele></ele><time>2014-6-18T9:11:35Z</time></trkpt>
<trkpt lat="47.37371600" lon="7.30924596"><ele></ele><time>2014-6-18T9:11:38Z</time></trkpt>
<trkpt lat="47.37369597" lon="7.30907497"><ele></ele><time>2014-6-18T9:11:41Z</time></trkpt>
<trkpt lat="47.37366303" lon="7.30887196"><ele></ele><time>2014-6-18T9:11:44Z</time></trkpt>
<trkpt lat="47.37357703" lon="7.30854297"><ele></ele><time>2014-6-18T9:11:47Z</time></trkpt>
<trkpt lat="47.37343404" lon="7.30803201"><ele></ele><time>2014-6-18T9:11:50Z</time></trkpt>
<trkpt lat="47.37330403" lon="7.30748903"><ele></ele><time>2014-6-18T9:11:53Z</time></trkpt>
<trkpt lat="47.37325198" lon="7.30727697"><ele></ele><time>2014-6-18T9:11:56Z</time></trkpt>
<trkpt lat="47.37314000" lon="7.30691403"><ele></ele><time>2014-6-18T9:11:59Z</time></trkpt>
<trkpt lat="47.37303598" lon="7.30656903"><ele></ele><time>2014-6-18T9:12:2Z</time></trkpt>
<trkpt lat="47.37296004" lon="7.30634901"><ele></ele><time>2014-6-18T9:12:5Z</time></trkpt>
<trkpt lat="47.37270699" lon="7.30599001"><ele></ele><time>2014-6-18T9:12:8Z</time></trkpt>
<trkpt lat="47.37252301" lon="7.30586101"><ele></ele><time>2014-6-18T9:12:11Z</time></trkpt>
<trkpt lat="47.37222503" lon="7.30542800"><ele></ele><time>2014-6-18T9:12:14Z</time></trkpt>
<trkpt lat="47.37213400" lon="7.30522399"><ele></ele><time>2014-6-18T9:12:17Z</time></trkpt>
<trkpt lat="47.37209100" lon="7.30505803"><ele></ele><time>2014-6-18T9:12:20Z</time></trkpt>
<trkpt lat="47.37205203" lon="7.30488000"><ele></ele><time>2014-6-18T9:12:23Z</time></trkpt>
<trkpt lat="47.37201800" lon="7.30473298"><ele></ele><time>2014-6-18T9:12:26Z</time></trkpt>
<trkpt lat="47.37193502" lon="7.30444103"><ele></ele><time>2014-6-18T9:12:29Z</time></trkpt>
<trkpt lat="47.37188397" lon="7.30434900"><ele></ele><time>2014-6-18T9:12:32Z</time></trkpt>
<trkpt lat="47.37185597" lon="7.30431204"><ele></ele><time>2014-6-18T9:12:35Z</time></trkpt>
<trkpt lat="47.37176998" lon="7.30425898"><ele></ele><time>2014-6-18T9:12:38Z</time></trkpt>
<trkpt lat="47.37140000" lon="7.30422503"><ele></ele><time>2014-6-18T9:12:41Z</time></trkpt>
<trkpt lat="47.37108601" lon="7.30397601"><ele></ele><time>2014-6-18T9:12:44Z</time></trkpt>
<trkpt lat="47.37098400" lon="7.30365900"><ele></ele><time>2014-6-18T9:12:47Z</time></trkpt>
<trkpt lat="47.37065803" lon="7.30332700"><ele></ele><time>2014-6-18T9:12:50Z</time></trkpt>
<trkpt lat="47.37045804" lon="7.30310597"><ele></ele><time>2014-6-18T9:12:53Z</time></trkpt>
<trkpt lat="47.37038604" lon="7.30306297"><ele></ele><time>2014-6-18T9:12:56Z</time></trkpt>
<trkpt lat="47.37035897" lon="7.30301402"><ele></ele><time>2014-6-18T9:12:59Z</time></trkpt>
<trkpt lat="47.37035000" lon="7.30299700"><ele></ele><time>2014-6-18T9:13:2Z</time></trkpt>
<trkpt lat="47.37035402" lon="7.30299097"><ele></ele><time>2014-6-18T9:13:5Z</time></trkpt>
<trkpt lat="47.37036198" lon="7.30299801"><ele></ele><time>2014-6-18T9:13:8Z</time></trkpt>
<trkpt lat="47.37028303" lon="7.30275602"><ele></ele><time>2014-6-18T9:13:11Z</time></trkpt>
<trkpt lat="47.37024204" lon="7.30222796"><ele></ele><time>2014-6-18T9:13:14Z</time></trkpt>
<trkpt lat="47.37018798" lon="7.30167300"><ele></ele><time>2014-6-18T9:13:17Z</time></trkpt>
<trkpt lat="47.37017004" lon="7.30138700"><ele></ele><time>2014-6-18T9:13:20Z</time></trkpt>
<trkpt lat="47.37000098" lon="7.30086196"><ele></ele><time>2014-6-18T9:13:23Z</time></trkpt>
<trkpt lat="47.36995798" lon="7.30071100"><ele></ele><time>2014-6-18T9:13:26Z</time></trkpt>
<trkpt lat="47.36970099" lon="7.30038403"><ele></ele><time>2014-6-18T9:13:29Z</time></trkpt>
<trkpt lat="47.36951399" lon="7.30022200"><ele></ele><time>2014-6-18T9:13:32Z</time></trkpt>
<trkpt lat="47.36929203" lon="7.30006099"><ele></ele><time>2014-6-18T9:13:35Z</time></trkpt>
<trkpt lat="47.36912498" lon="7.29998404"><ele></ele><time>2014-6-18T9:13:38Z</time></trkpt>
<trkpt lat="47.36873397" lon="7.29957903"><ele></ele><time>2014-6-18T9:13:41Z</time></trkpt>
<trkpt lat="47.36860598" lon="7.29938197"><ele></ele><time>2014-6-18T9:13:44Z</time></trkpt>
<trkpt lat="47.36831596" lon="7.29884502"><ele></ele><time>2014-6-18T9:13:47Z</time></trkpt>
<trkpt lat="47.36825704" lon="7.29877898"><ele></ele><time>2014-6-18T9:13:50Z</time></trkpt>
<trkpt lat="47.36780098" lon="7.29844596"><ele></ele><time>2014-6-18T9:13:53Z</time></trkpt>
<trkpt lat="47.36754801" lon="7.29810700"><ele></ele><time>2014-6-18T9:13:56Z</time></trkpt>
<trkpt lat="47.36752002" lon="7.29780701"><ele></ele><time>2014-6-18T9:13:59Z</time></trkpt>
<trkpt lat="47.36751499" lon="7.29754097"><ele></ele><time>2014-6-18T9:14:2Z</time></trkpt>
<trkpt lat="47.36756301" lon="7.29701702"><ele></ele><time>2014-6-18T9:14:5Z</time></trkpt>
<trkpt lat="47.36767902" lon="7.29654402"><ele></ele><time>2014-6-18T9:14:8Z</time></trkpt>
<trkpt lat="47.36782696" lon="7.29603600"><ele></ele><time>2014-6-18T9:14:11Z</time></trkpt>
<trkpt lat="47.36802997" lon="7.29555597"><ele></ele><time>2014-6-18T9:14:14Z</time></trkpt>
<trkpt lat="47.36831797" lon="7.29515104"><ele></ele><time>2014-6-18T9:14:17Z</time></trkpt>
<trkpt lat="47.36860396" lon="7.29480897"><ele></ele><time>2014-6-18T9:14:20Z</time></trkpt>
<trkpt lat="47.36895600" lon="7.29466799"><ele></ele><time>2014-6-18T9:14:23Z</time></trkpt>
<trkpt lat="47.36922397" lon="7.29459599"><ele></ele><time>2014-6-18T9:14:26Z</time></trkpt>
<trkpt lat="47.36926697" lon="7.29458199"><ele></ele><time>2014-6-18T9:14:29Z</time></trkpt>
<trkpt lat="47.36961298" lon="7.29451200"><ele></ele><time>2014-6-18T9:14:32Z</time></trkpt>
<trkpt lat="47.36983996" lon="7.29451301"><ele></ele><time>2014-6-18T9:14:35Z</time></trkpt>
<trkpt lat="47.37012704" lon="7.29430103"><ele></ele><time>2014-6-18T9:14:38Z</time></trkpt>
<trkpt lat="47.37026601" lon="7.29406902"><ele></ele><time>2014-6-18T9:14:41Z</time></trkpt>
<trkpt lat="47.37032996" lon="7.29396299"><ele></ele><time>2014-6-18T9:14:44Z</time></trkpt>
<trkpt lat="47.37041202" lon="7.29385796"><ele></ele><time>2014-6-18T9:14:47Z</time></trkpt>
<trkpt lat="47.37054798" lon="7.29381303"><ele></ele><time>2014-6-18T9:14:50Z</time></trkpt>
<trkpt lat="47.37078301" lon="7.29382602"><ele></ele><time>2014-6-18T9:14:53Z</time></trkpt>
<trkpt lat="47.37102298" lon="7.29373399"><ele></ele><time>2014-6-18T9:14:56Z</time></trkpt>
<trkpt lat="47.37118500" lon="7.29359100"><ele></ele><time>2014-6-18T9:14:59Z</time></trkpt>
<trkpt lat="47.37139396" lon="7.29316603"><ele></ele><time>2014-6-18T9:15:2Z</time></trkpt>
<trkpt lat="47.37166897" lon="7.29282598"><ele></ele><time>2014-6-18T9:15:5Z</time></trkpt>
<trkpt lat="47.37202998" lon="7.29271500"><ele></ele><time>2014-6-18T9:15:8Z</time></trkpt>
<trkpt lat="47.37224397" lon="7.29270101"><ele></ele><time>2014-6-18T9:15:11Z</time></trkpt>
<trkpt lat="47.37260498" lon="7.29253999"><ele></ele><time>2014-6-18T9:15:14Z</time></trkpt>
<trkpt lat="47.37265100" lon="7.29251199"><ele></ele><time>2014-6-18T9:15:17Z</time></trkpt>
<trkpt lat="47.37270598" lon="7.29230898"><ele></ele><time>2014-6-18T9:15:20Z</time></trkpt>
<trkpt lat="47.37267002" lon="7.29218904"><ele></ele><time>2014-6-18T9:15:23Z</time></trkpt>
<trkpt lat="47.37266399" lon="7.29218602"><ele></ele><time>2014-6-18T9:15:26Z</time></trkpt>
<trkpt lat="47.37301502" lon="7.29220002"><ele></ele><time>2014-6-18T9:15:29Z</time></trkpt>
<trkpt lat="47.37314603" lon="7.29218703"><ele></ele><time>2014-6-18T9:15:32Z</time></trkpt>
<trkpt lat="47.37330596" lon="7.29218703"><ele></ele><time>2014-6-18T9:15:35Z</time></trkpt>
<trkpt lat="47.37334502" lon="7.29220597"><ele></ele><time>2014-6-18T9:15:38Z</time></trkpt>
<trkpt lat="47.37338198" lon="7.29220597"><ele></ele><time>2014-6-18T9:15:41Z</time></trkpt>
<trkpt lat="47.37340302" lon="7.29221402"><ele></ele><time>2014-6-18T9:15:44Z</time></trkpt>
<trkpt lat="47.37357200" lon="7.29200003"><ele></ele><time>2014-6-18T9:15:47Z</time></trkpt>
<trkpt lat="47.37369698" lon="7.29189500"><ele></ele><time>2014-6-18T9:15:50Z</time></trkpt>
<trkpt lat="47.37386202" lon="7.29187204"><ele></ele><time>2014-6-18T9:15:53Z</time></trkpt>
<trkpt lat="47.37397701" lon="7.29185997"><ele></ele><time>2014-6-18T9:15:56Z</time></trkpt>
<trkpt lat="47.37435697" lon="7.29171898"><ele></ele><time>2014-6-18T9:15:59Z</time></trkpt>
<trkpt lat="47.37453600" lon="7.29175000"><ele></ele><time>2014-6-18T9:16:2Z</time></trkpt>
<trkpt lat="47.37477003" lon="7.29179501"><ele></ele><time>2014-6-18T9:16:5Z</time></trkpt>
<trkpt lat="47.37492098" lon="7.29182702"><ele></ele><time>2014-6-18T9:16:8Z</time></trkpt>
<trkpt lat="47.37509399" lon="7.29231996"><ele></ele><time>2014-6-18T9:16:11Z</time></trkpt>
<trkpt lat="47.37517102" lon="7.29264996"><ele></ele><time>2014-6-18T9:16:14Z</time></trkpt>
<trkpt lat="47.37523204" lon="7.29287602"><ele></ele><time>2014-6-18T9:16:17Z</time></trkpt>
<trkpt lat="47.37536103" lon="7.29338204"><ele></ele><time>2014-6-18T9:16:20Z</time></trkpt>
<trkpt lat="47.37543496" lon="7.29389803"><ele></ele><time>2014-6-18T9:16:23Z</time></trkpt>
<trkpt lat="47.37552800" lon="7.29441502"><ele></ele><time>2014-6-18T9:16:26Z</time></trkpt>
<trkpt lat="47.37555600" lon="7.29449004"><ele></ele><time>2014-6-18T9:16:29Z</time></trkpt>
<trkpt lat="47.37558500" lon="7.29456598"><ele></ele><time>2014-6-18T9:16:32Z</time></trkpt>
<trkpt lat="47.37571802" lon="7.29510100"><ele></ele><time>2014-6-18T9:16:35Z</time></trkpt>
<trkpt lat="47.37575901" lon="7.29542898"><ele></ele><time>2014-6-18T9:16:38Z</time></trkpt>
<trkpt lat="47.37578499" lon="7.29576300"><ele></ele><time>2014-6-18T9:16:41Z</time></trkpt>
<trkpt lat="47.37579698" lon="7.29586501"><ele></ele><time>2014-6-18T9:16:44Z</time></trkpt>
<trkpt lat="47.37584199" lon="7.29642903"><ele></ele><time>2014-6-18T9:16:47Z</time></trkpt>
<trkpt lat="47.37593997" lon="7.29695097"><ele></ele><time>2014-6-18T9:16:50Z</time></trkpt>
<trkpt lat="47.37603896" lon="7.29723101"><ele></ele><time>2014-6-18T9:16:53Z</time></trkpt>
<trkpt lat="47.37604097" lon="7.29733603"><ele></ele><time>2014-6-18T9:16:56Z</time></trkpt>
<trkpt lat="47.37606101" lon="7.29750400"><ele></ele><time>2014-6-18T9:16:59Z</time></trkpt>
<trkpt lat="47.37606796" lon="7.29762504"><ele></ele><time>2014-6-18T9:17:2Z</time></trkpt>
<trkpt lat="47.37606000" lon="7.29770601"><ele></ele><time>2014-6-18T9:17:5Z</time></trkpt>
<trkpt lat="47.37614600" lon="7.29825804"><ele></ele><time>2014-6-18T9:17:8Z</time></trkpt>
<trkpt lat="47.37627701" lon="7.29877202"><ele></ele><time>2014-6-18T9:17:11Z</time></trkpt>
<trkpt lat="47.37628598" lon="7.29886003"><ele></ele><time>2014-6-18T9:17:14Z</time></trkpt>
<trkpt lat="47.37629302" lon="7.29894804"><ele></ele><time>2014-6-18T9:17:17Z</time></trkpt>
<trkpt lat="47.37631800" lon="7.29924702"><ele></ele><time>2014-6-18T9:17:20Z</time></trkpt>
<trkpt lat="47.37634499" lon="7.29940896"><ele></ele><time>2014-6-18T9:17:23Z</time></trkpt>
<trkpt lat="47.37635203" lon="7.29945397"><ele></ele><time>2014-6-18T9:17:26Z</time></trkpt>
<trkpt lat="47.37636804" lon="7.29954500"><ele></ele><time>2014-6-18T9:17:29Z</time></trkpt>
<trkpt lat="47.37638002" lon="7.29968598"><ele></ele><time>2014-6-18T9:17:32Z</time></trkpt>
<trkpt lat="47.37638396" lon="7.29982101"><ele></ele><time>2014-6-18T9:17:35Z</time></trkpt>
<trkpt lat="47.37640098" lon="7.29988396"><ele></ele><time>2014-6-18T9:17:38Z</time></trkpt>
<trkpt lat="47.37641699" lon="7.30001497"><ele></ele><time>2014-6-18T9:17:41Z</time></trkpt>
<trkpt lat="47.37643601" lon="7.30013701"><ele></ele><time>2014-6-18T9:17:44Z</time></trkpt>
<trkpt lat="47.37645504" lon="7.30025503"><ele></ele><time>2014-6-18T9:17:47Z</time></trkpt>
<trkpt lat="47.37655898" lon="7.30080597"><ele></ele><time>2014-6-18T9:17:50Z</time></trkpt>
<trkpt lat="47.37661304" lon="7.30123504"><ele></ele><time>2014-6-18T9:17:53Z</time></trkpt>
<trkpt lat="47.37664497" lon="7.30135004"><ele></ele><time>2014-6-18T9:17:56Z</time></trkpt>
<trkpt lat="47.37669401" lon="7.30132900"><ele></ele><time>2014-6-18T9:17:59Z</time></trkpt>
<trkpt lat="47.37670700" lon="7.30151801"><ele></ele><time>2014-6-18T9:18:2Z</time></trkpt>
<trkpt lat="47.37672502" lon="7.30157199"><ele></ele><time>2014-6-18T9:18:5Z</time></trkpt>
<trkpt lat="47.37673097" lon="7.30167400"><ele></ele><time>2014-6-18T9:18:8Z</time></trkpt>
<trkpt lat="47.37673600" lon="7.30168699"><ele></ele><time>2014-6-18T9:18:11Z</time></trkpt>
<trkpt lat="47.37672301" lon="7.30168004"><ele></ele><time>2014-6-18T9:18:14Z</time></trkpt>
<trkpt lat="47.37673198" lon="7.30169001"><ele></ele><time>2014-6-18T9:18:17Z</time></trkpt>
<trkpt lat="47.37676601" lon="7.30164802"><ele></ele><time>2014-6-18T9:18:20Z</time></trkpt>
<trkpt lat="47.37671002" lon="7.30165900"><ele></ele><time>2014-6-18T9:18:23Z</time></trkpt>
<trkpt lat="47.37671899" lon="7.30168599"><ele></ele><time>2014-6-18T9:18:26Z</time></trkpt>
<trkpt lat="47.37680004" lon="7.30195999"><ele></ele><time>2014-6-18T9:18:29Z</time></trkpt>
<trkpt lat="47.37689601" lon="7.30225101"><ele></ele><time>2014-6-18T9:18:32Z</time></trkpt>
<trkpt lat="47.37695301" lon="7.30235604"><ele></ele><time>2014-6-18T9:18:35Z</time></trkpt>
<trkpt lat="47.37698402" lon="7.30239904"><ele></ele><time>2014-6-18T9:18:38Z</time></trkpt>
<trkpt lat="47.37702903" lon="7.30247498"><ele></ele><time>2014-6-18T9:18:41Z</time></trkpt>
<trkpt lat="47.37706399" lon="7.30255502"><ele></ele><time>2014-6-18T9:18:44Z</time></trkpt>
<trkpt lat="47.37711797" lon="7.30270699"><ele></ele><time>2014-6-18T9:18:47Z</time></trkpt>
<trkpt lat="47.37726096" lon="7.30323496"><ele></ele><time>2014-6-18T9:18:50Z</time></trkpt>
<trkpt lat="47.37741200" lon="7.30372597"><ele></ele><time>2014-6-18T9:18:53Z</time></trkpt>
<trkpt lat="47.37755701" lon="7.30421296"><ele></ele><time>2014-6-18T9:18:56Z</time></trkpt>
<trkpt lat="47.37771803" lon="7.30468897"><ele></ele><time>2014-6-18T9:18:59Z</time></trkpt>
<trkpt lat="47.37793101" lon="7.30512600"><ele></ele><time>2014-6-18T9:19:2Z</time></trkpt>
<trkpt lat="47.37818900" lon="7.30552398"><ele></ele><time>2014-6-18T9:19:5Z</time></trkpt>
<trkpt lat="47.37841900" lon="7.30595103"><ele></ele><time>2014-6-18T9:19:8Z</time></trkpt>
<trkpt lat="47.37858899" lon="7.30642796"><ele></ele><time>2014-6-18T9:19:11Z</time></trkpt>
<trkpt lat="47.37888202" lon="7.30676098"><ele></ele><time>2014-6-18T9:19:14Z</time></trkpt>
<trkpt lat="47.37905603" lon="7.30723003"><ele></ele><time>2014-6-18T9:19:17Z</time></trkpt>
<trkpt lat="47.37926398" lon="7.30766396"><ele></ele><time>2014-6-18T9:19:20Z</time></trkpt>
<trkpt lat="47.37935803" lon="7.30773102"><ele></ele><time>2014-6-18T9:19:23Z</time></trkpt>
<trkpt lat="47.37954704" lon="7.30800100"><ele></ele><time>2014-6-18T9:19:26Z</time></trkpt>
<trkpt lat="47.37966900" lon="7.30825799"><ele></ele><time>2014-6-18T9:19:29Z</time></trkpt>
<trkpt lat="47.37985298" lon="7.30867700"><ele></ele><time>2014-6-18T9:19:32Z</time></trkpt>
<trkpt lat="47.37977897" lon="7.30879200"><ele></ele><time>2014-6-18T9:19:35Z</time></trkpt>
<trkpt lat="47.37957001" lon="7.30874799"><ele></ele><time>2014-6-18T9:19:38Z</time></trkpt>
<trkpt lat="47.37941997" lon="7.30869602"><ele></ele><time>2014-6-18T9:19:41Z</time></trkpt>
<trkpt lat="47.37921503" lon="7.30859502"><ele></ele><time>2014-6-18T9:19:44Z</time></trkpt>
<trkpt lat="47.37894799" lon="7.30841800"><ele></ele><time>2014-6-18T9:19:47Z</time></trkpt>
<trkpt lat="47.37876300" lon="7.30828799"><ele></ele><time>2014-6-18T9:19:50Z</time></trkpt>
<trkpt lat="47.37844398" lon="7.30804400"><ele></ele><time>2014-6-18T9:19:53Z</time></trkpt>
<trkpt lat="47.37829998" lon="7.30792698"><ele></ele><time>2014-6-18T9:19:56Z</time></trkpt>
<trkpt lat="47.37799496" lon="7.30761803"><ele></ele><time>2014-6-18T9:19:59Z</time></trkpt>
<trkpt lat="47.37767704" lon="7.30736297"><ele></ele><time>2014-6-18T9:20:2Z</time></trkpt>
<trkpt lat="47.37732098" lon="7.30723799"><ele></ele><time>2014-6-18T9:20:5Z</time></trkpt>
<trkpt lat="47.37700799" lon="7.30724302"><ele></ele><time>2014-6-18T9:20:8Z</time></trkpt>
<trkpt lat="47.37688897" lon="7.30767201"><ele></ele><time>2014-6-18T9:20:11Z</time></trkpt>
<trkpt lat="47.37701001" lon="7.30801701"><ele></ele><time>2014-6-18T9:20:14Z</time></trkpt>
<trkpt lat="47.37712601" lon="7.30833904"><ele></ele><time>2014-6-18T9:20:17Z</time></trkpt>
<trkpt lat="47.37735199" lon="7.30876501"><ele></ele><time>2014-6-18T9:20:20Z</time></trkpt>
<trkpt lat="47.37763999" lon="7.30912702"><ele></ele><time>2014-6-18T9:20:23Z</time></trkpt>
<trkpt lat="47.37788198" lon="7.30954000"><ele></ele><time>2014-6-18T9:20:26Z</time></trkpt>
<trkpt lat="47.37807300" lon="7.31002497"><ele></ele><time>2014-6-18T9:20:29Z</time></trkpt>
<trkpt lat="47.37821197" lon="7.31052102"><ele></ele><time>2014-6-18T9:20:32Z</time></trkpt>
<trkpt lat="47.37822697" lon="7.31060701"><ele></ele><time>2014-6-18T9:20:35Z</time></trkpt>
<trkpt lat="47.37836796" lon="7.31112602"><ele></ele><time>2014-6-18T9:20:38Z</time></trkpt>
<trkpt lat="47.37854197" lon="7.31157202"><ele></ele><time>2014-6-18T9:20:41Z</time></trkpt>
<trkpt lat="47.37871497" lon="7.31205096"><ele></ele><time>2014-6-18T9:20:44Z</time></trkpt>
<trkpt lat="47.37880499" lon="7.31240300"><ele></ele><time>2014-6-18T9:20:47Z</time></trkpt>
<trkpt lat="47.37895796" lon="7.31291598"><ele></ele><time>2014-6-18T9:20:50Z</time></trkpt>
<trkpt lat="47.37912702" lon="7.31339903"><ele></ele><time>2014-6-18T9:20:53Z</time></trkpt>
<trkpt lat="47.37926398" lon="7.31392600"><ele></ele><time>2014-6-18T9:20:56Z</time></trkpt>
<trkpt lat="47.37941402" lon="7.31443604"><ele></ele><time>2014-6-18T9:20:59Z</time></trkpt>
<trkpt lat="47.37952600" lon="7.31495303"><ele></ele><time>2014-6-18T9:21:2Z</time></trkpt>
<trkpt lat="47.37961502" lon="7.31548897"><ele></ele><time>2014-6-18T9:21:5Z</time></trkpt>
<trkpt lat="47.37969498" lon="7.31602902"><ele></ele><time>2014-6-18T9:21:8Z</time></trkpt>
<trkpt lat="47.37975600" lon="7.31655397"><ele></ele><time>2014-6-18T9:21:11Z</time></trkpt>
<trkpt lat="47.37985700" lon="7.31706401"><ele></ele><time>2014-6-18T9:21:14Z</time></trkpt>
<trkpt lat="47.37986002" lon="7.31728203"><ele></ele><time>2014-6-18T9:21:17Z</time></trkpt>
<trkpt lat="47.37986899" lon="7.31739996"><ele></ele><time>2014-6-18T9:21:20Z</time></trkpt>
<trkpt lat="47.37992699" lon="7.31777798"><ele></ele><time>2014-6-18T9:21:23Z</time></trkpt>
<trkpt lat="47.38008097" lon="7.31779701"><ele></ele><time>2014-6-18T9:21:26Z</time></trkpt>
<trkpt lat="47.38031801" lon="7.31733802"><ele></ele><time>2014-6-18T9:21:29Z</time></trkpt>
<trkpt lat="47.38046704" lon="7.31702202"><ele></ele><time>2014-6-18T9:21:32Z</time></trkpt>
<trkpt lat="47.38063803" lon="7.31675497"><ele></ele><time>2014-6-18T9:21:35Z</time></trkpt>
<trkpt lat="47.38078798" lon="7.31665799"><ele></ele><time>2014-6-18T9:21:38Z</time></trkpt>
<trkpt lat="47.38092503" lon="7.31663796"><ele></ele><time>2014-6-18T9:21:41Z</time></trkpt>
<trkpt lat="47.38121303" lon="7.31665699"><ele></ele><time>2014-6-18T9:21:44Z</time></trkpt>
<trkpt lat="47.38162299" lon="7.31696603"><ele></ele><time>2014-6-18T9:21:47Z</time></trkpt>
<trkpt lat="47.38167403" lon="7.31711104"><ele></ele><time>2014-6-18T9:21:50Z</time></trkpt>
<trkpt lat="47.38176799" lon="7.31749300"><ele></ele><time>2014-6-18T9:21:53Z</time></trkpt>
<trkpt lat="47.38181200" lon="7.31736903"><ele></ele><time>2014-6-18T9:21:56Z</time></trkpt>
<trkpt lat="47.38180102" lon="7.31729502"><ele></ele><time>2014-6-18T9:21:59Z</time></trkpt>
<trkpt lat="47.38179800" lon="7.31727197"><ele></ele><time>2014-6-18T9:22:2Z</time></trkpt>
<trkpt lat="47.38178099" lon="7.31721103"><ele></ele><time>2014-6-18T9:22:5Z</time></trkpt>
<trkpt lat="47.38177604" lon="7.31719896"><ele></ele><time>2014-6-18T9:22:8Z</time></trkpt>
<trkpt lat="47.38175802" lon="7.31716401"><ele></ele><time>2014-6-18T9:22:11Z</time></trkpt>
<trkpt lat="47.38176498" lon="7.31705798"><ele></ele><time>2014-6-18T9:22:14Z</time></trkpt>
<trkpt lat="47.38177101" lon="7.31687299"><ele></ele><time>2014-6-18T9:22:17Z</time></trkpt>
<trkpt lat="47.38173204" lon="7.31661701"><ele></ele><time>2014-6-18T9:22:20Z</time></trkpt>
<trkpt lat="47.38162500" lon="7.31646102"><ele></ele><time>2014-6-18T9:22:23Z</time></trkpt>
<trkpt lat="47.38160002" lon="7.31642196"><ele></ele><time>2014-6-18T9:22:26Z</time></trkpt>
<trkpt lat="47.38142903" lon="7.31604301"><ele></ele><time>2014-6-18T9:22:29Z</time></trkpt>
<trkpt lat="47.38141000" lon="7.31598602"><ele></ele><time>2014-6-18T9:22:32Z</time></trkpt>
<trkpt lat="47.38138997" lon="7.31590496"><ele></ele><time>2014-6-18T9:22:35Z</time></trkpt>
<trkpt lat="47.38136600" lon="7.31583204"><ele></ele><time>2014-6-18T9:22:38Z</time></trkpt>
<trkpt lat="47.38132300" lon="7.31573297"><ele></ele><time>2014-6-18T9:22:41Z</time></trkpt>
<trkpt lat="47.38127698" lon="7.31567304"><ele></ele><time>2014-6-18T9:22:44Z</time></trkpt>
<trkpt lat="47.38124597" lon="7.31558000"><ele></ele><time>2014-6-18T9:22:47Z</time></trkpt>
<trkpt lat="47.38104698" lon="7.31511899"><ele></ele><time>2014-6-18T9:22:50Z</time></trkpt>
<trkpt lat="47.38086099" lon="7.31470400"><ele></ele><time>2014-6-18T9:22:53Z</time></trkpt>
<trkpt lat="47.38083802" lon="7.31462899"><ele></ele><time>2014-6-18T9:22:56Z</time></trkpt>
<trkpt lat="47.38079402" lon="7.31443402"><ele></ele><time>2014-6-18T9:22:59Z</time></trkpt>
<trkpt lat="47.38085202" lon="7.31420101"><ele></ele><time>2014-6-18T9:23:2Z</time></trkpt>
<trkpt lat="47.38094699" lon="7.31411400"><ele></ele><time>2014-6-18T9:23:5Z</time></trkpt>
<trkpt lat="47.38124999" lon="7.31385098"><ele></ele><time>2014-6-18T9:23:8Z</time></trkpt>
<trkpt lat="47.38130397" lon="7.31384997"><ele></ele><time>2014-6-18T9:23:11Z</time></trkpt>
<trkpt lat="47.38128897" lon="7.31384402"><ele></ele><time>2014-6-18T9:23:14Z</time></trkpt>
<trkpt lat="47.38132199" lon="7.31385802"><ele></ele><time>2014-6-18T9:23:17Z</time></trkpt>
<trkpt lat="47.38149198" lon="7.31335804"><ele></ele><time>2014-6-18T9:23:20Z</time></trkpt>
<trkpt lat="47.38157102" lon="7.31285504"><ele></ele><time>2014-6-18T9:23:23Z</time></trkpt>
<trkpt lat="47.38158200" lon="7.31274901"><ele></ele><time>2014-6-18T9:23:26Z</time></trkpt>
<trkpt lat="47.38157596" lon="7.31263703"><ele></ele><time>2014-6-18T9:23:29Z</time></trkpt>
<trkpt lat="47.38166800" lon="7.31204501"><ele></ele><time>2014-6-18T9:23:32Z</time></trkpt>
<trkpt lat="47.38173597" lon="7.31178702"><ele></ele><time>2014-6-18T9:23:35Z</time></trkpt>
<trkpt lat="47.38177998" lon="7.31119802"><ele></ele><time>2014-6-18T9:23:38Z</time></trkpt>
<trkpt lat="47.38180102" lon="7.31082402"><ele></ele><time>2014-6-18T9:23:41Z</time></trkpt>
<trkpt lat="47.38179800" lon="7.31067700"><ele></ele><time>2014-6-18T9:23:44Z</time></trkpt>
<trkpt lat="47.38180001" lon="7.31032496"><ele></ele><time>2014-6-18T9:23:47Z</time></trkpt>
<trkpt lat="47.38182097" lon="7.31002900"><ele></ele><time>2014-6-18T9:23:50Z</time></trkpt>
<trkpt lat="47.38183304" lon="7.30979799"><ele></ele><time>2014-6-18T9:23:53Z</time></trkpt>
<trkpt lat="47.38180798" lon="7.30935400"><ele></ele><time>2014-6-18T9:23:56Z</time></trkpt>
<trkpt lat="47.38181996" lon="7.30927597"><ele></ele><time>2014-6-18T9:23:59Z</time></trkpt>
<trkpt lat="47.38181200" lon="7.30915200"><ele></ele><time>2014-6-18T9:24:2Z</time></trkpt>
<trkpt lat="47.38174100" lon="7.30861003"><ele></ele><time>2014-6-18T9:24:5Z</time></trkpt>
<trkpt lat="47.38174000" lon="7.30858899"><ele></ele><time>2014-6-18T9:24:8Z</time></trkpt>
<trkpt lat="47.38169096" lon="7.30816101"><ele></ele><time>2014-6-18T9:24:11Z</time></trkpt>
<trkpt lat="47.38167998" lon="7.30802103"><ele></ele><time>2014-6-18T9:24:14Z</time></trkpt>
<trkpt lat="47.38167504" lon="7.30779799"><ele></ele><time>2014-6-18T9:24:17Z</time></trkpt>
<trkpt lat="47.38166104" lon="7.30759397"><ele></ele><time>2014-6-18T9:24:20Z</time></trkpt>
<trkpt lat="47.38157898" lon="7.30703800"><ele></ele><time>2014-6-18T9:24:23Z</time></trkpt>
<trkpt lat="47.38152601" lon="7.30673801"><ele></ele><time>2014-6-18T9:24:26Z</time></trkpt>
<trkpt lat="47.38149399" lon="7.30617600"><ele></ele><time>2014-6-18T9:24:29Z</time></trkpt>
<trkpt lat="47.38149198" lon="7.30563696"><ele></ele><time>2014-6-18T9:24:32Z</time></trkpt>
<trkpt lat="47.38151000" lon="7.30510304"><ele></ele><time>2014-6-18T9:24:35Z</time></trkpt>
<trkpt lat="47.38156398" lon="7.30474002"><ele></ele><time>2014-6-18T9:24:38Z</time></trkpt>
<trkpt lat="47.38154897" lon="7.30470004"><ele></ele><time>2014-6-18T9:24:41Z</time></trkpt>
<trkpt lat="47.38154504" lon="7.30469098"><ele></ele><time>2014-6-18T9:24:44Z</time></trkpt>
<trkpt lat="47.38151000" lon="7.30454698"><ele></ele><time>2014-6-18T9:24:47Z</time></trkpt>
<trkpt lat="47.38147798" lon="7.30434598"><ele></ele><time>2014-6-18T9:24:50Z</time></trkpt>
<trkpt lat="47.38144001" lon="7.30410299"><ele></ele><time>2014-6-18T9:24:53Z</time></trkpt>
<trkpt lat="47.38138997" lon="7.30373897"><ele></ele><time>2014-6-18T9:24:56Z</time></trkpt>
<trkpt lat="47.38131403" lon="7.30320697"><ele></ele><time>2014-6-18T9:24:59Z</time></trkpt>
<trkpt lat="47.38124002" lon="7.30283297"><ele></ele><time>2014-6-18T9:25:2Z</time></trkpt>
<trkpt lat="47.38111697" lon="7.30248000"><ele></ele><time>2014-6-18T9:25:5Z</time></trkpt>
<trkpt lat="47.38095302" lon="7.30198497"><ele></ele><time>2014-6-18T9:25:8Z</time></trkpt>
<trkpt lat="47.38081003" lon="7.30148097"><ele></ele><time>2014-6-18T9:25:11Z</time></trkpt>
<trkpt lat="47.38072797" lon="7.30091703"><ele></ele><time>2014-6-18T9:25:14Z</time></trkpt>
<trkpt lat="47.38067298" lon="7.30037103"><ele></ele><time>2014-6-18T9:25:17Z</time></trkpt>
<trkpt lat="47.38058598" lon="7.29981699"><ele></ele><time>2014-6-18T9:25:20Z</time></trkpt>
<trkpt lat="47.38048003" lon="7.29928801"><ele></ele><time>2014-6-18T9:25:23Z</time></trkpt>
<trkpt lat="47.38038699" lon="7.29882097"><ele></ele><time>2014-6-18T9:25:26Z</time></trkpt>
<trkpt lat="47.38026202" lon="7.29828201"><ele></ele><time>2014-6-18T9:25:29Z</time></trkpt>
<trkpt lat="47.38024400" lon="7.29821102"><ele></ele><time>2014-6-18T9:25:32Z</time></trkpt>
<trkpt lat="47.38015599" lon="7.29760400"><ele></ele><time>2014-6-18T9:25:35Z</time></trkpt>
<trkpt lat="47.38012497" lon="7.29721399"><ele></ele><time>2014-6-18T9:25:38Z</time></trkpt>
<trkpt lat="47.38003604" lon="7.29666498"><ele></ele><time>2014-6-18T9:25:41Z</time></trkpt>
<trkpt lat="47.37997896" lon="7.29627002"><ele></ele><time>2014-6-18T9:25:44Z</time></trkpt>
<trkpt lat="47.37992900" lon="7.29594598"><ele></ele><time>2014-6-18T9:25:47Z</time></trkpt>
<trkpt lat="47.37985298" lon="7.29549796"><ele></ele><time>2014-6-18T9:25:50Z</time></trkpt>
<trkpt lat="47.37975198" lon="7.29487502"><ele></ele><time>2014-6-18T9:25:53Z</time></trkpt>
<trkpt lat="47.37968501" lon="7.29443296"><ele></ele><time>2014-6-18T9:25:56Z</time></trkpt>
<trkpt lat="47.37959800" lon="7.29394304"><ele></ele><time>2014-6-18T9:25:59Z</time></trkpt>
<trkpt lat="47.37950002" lon="7.29335798"><ele></ele><time>2014-6-18T9:26:2Z</time></trkpt>
<trkpt lat="47.37942198" lon="7.29283897"><ele></ele><time>2014-6-18T9:26:5Z</time></trkpt>
<trkpt lat="47.37935501" lon="7.29241099"><ele></ele><time>2014-6-18T9:26:8Z</time></trkpt>
<trkpt lat="47.37926298" lon="7.29180599"><ele></ele><time>2014-6-18T9:26:11Z</time></trkpt>
<trkpt lat="47.37921604" lon="7.29157498"><ele></ele><time>2014-6-18T9:26:14Z</time></trkpt>
<trkpt lat="47.37912803" lon="7.29097500"><ele></ele><time>2014-6-18T9:26:17Z</time></trkpt>
<trkpt lat="47.37917698" lon="7.29042197"><ele></ele><time>2014-6-18T9:26:20Z</time></trkpt>
<trkpt lat="47.37922098" lon="7.28989600"><ele></ele><time>2014-6-18T9:26:23Z</time></trkpt>
<trkpt lat="47.37924797" lon="7.28932997"><ele></ele><time>2014-6-18T9:26:26Z</time></trkpt>
<trkpt lat="47.37928201" lon="7.28875397"><ele></ele><time>2014-6-18T9:26:29Z</time></trkpt>
<trkpt lat="47.37932802" lon="7.28819800"><ele></ele><time>2014-6-18T9:26:32Z</time></trkpt>
<trkpt lat="47.37931604" lon="7.28764898"><ele></ele><time>2014-6-18T9:26:35Z</time></trkpt>
<trkpt lat="47.37931998" lon="7.28707499"><ele></ele><time>2014-6-18T9:26:38Z</time></trkpt>
<trkpt lat="47.37937002" lon="7.28648700"><ele></ele><time>2014-6-18T9:26:41Z</time></trkpt>
<trkpt lat="47.37940203" lon="7.28595802"><ele></ele><time>2014-6-18T9:26:44Z</time></trkpt>
<trkpt lat="47.37941100" lon="7.28565099"><ele></ele><time>2014-6-18T9:26:47Z</time></trkpt>
<trkpt lat="47.37943204" lon="7.28534597"><ele></ele><time>2014-6-18T9:26:50Z</time></trkpt>
<trkpt lat="47.37943900" lon="7.28471699"><ele></ele><time>2014-6-18T9:26:53Z</time></trkpt>
<trkpt lat="47.37944302" lon="7.28412498"><ele></ele><time>2014-6-18T9:26:56Z</time></trkpt>
<trkpt lat="47.37944797" lon="7.28352400"><ele></ele><time>2014-6-18T9:26:59Z</time></trkpt>
<trkpt lat="47.37945601" lon="7.28316198"><ele></ele><time>2014-6-18T9:27:2Z</time></trkpt>
<trkpt lat="47.37948200" lon="7.28250601"><ele></ele><time>2014-6-18T9:27:5Z</time></trkpt>
<trkpt lat="47.37951301" lon="7.28193797"><ele></ele><time>2014-6-18T9:27:8Z</time></trkpt>
<trkpt lat="47.37952902" lon="7.28173203"><ele></ele><time>2014-6-18T9:27:11Z</time></trkpt>
<trkpt lat="47.37954897" lon="7.28152500"><ele></ele><time>2014-6-18T9:27:14Z</time></trkpt>
<trkpt lat="47.37959800" lon="7.28093097"><ele></ele><time>2014-6-18T9:27:17Z</time></trkpt>
<trkpt lat="47.37964704" lon="7.28045002"><ele></ele><time>2014-6-18T9:27:20Z</time></trkpt>
<trkpt lat="47.37967503" lon="7.28012899"><ele></ele><time>2014-6-18T9:27:23Z</time></trkpt>
<trkpt lat="47.37971996" lon="7.27961099"><ele></ele><time>2014-6-18T9:27:26Z</time></trkpt>
<trkpt lat="47.37973002" lon="7.27942902"><ele></ele><time>2014-6-18T9:27:29Z</time></trkpt>
<trkpt lat="47.37978199" lon="7.27880700"><ele></ele><time>2014-6-18T9:27:32Z</time></trkpt>
<trkpt lat="47.37980403" lon="7.27830802"><ele></ele><time>2014-6-18T9:27:35Z</time></trkpt>
<trkpt lat="47.37981400" lon="7.27775096"><ele></ele><time>2014-6-18T9:27:38Z</time></trkpt>
<trkpt lat="47.37983999" lon="7.27719599"><ele></ele><time>2014-6-18T9:27:41Z</time></trkpt>
<trkpt lat="47.37986002" lon="7.27664597"><ele></ele><time>2014-6-18T9:27:44Z</time></trkpt>
<trkpt lat="47.37987603" lon="7.27607097"><ele></ele><time>2014-6-18T9:27:47Z</time></trkpt>
<trkpt lat="47.37989497" lon="7.27550201"><ele></ele><time>2014-6-18T9:27:50Z</time></trkpt>
<trkpt lat="47.37992297" lon="7.27494403"><ele></ele><time>2014-6-18T9:27:53Z</time></trkpt>
<trkpt lat="47.37994703" lon="7.27437498"><ele></ele><time>2014-6-18T9:27:56Z</time></trkpt>
<trkpt lat="47.38000100" lon="7.27382697"><ele></ele><time>2014-6-18T9:27:59Z</time></trkpt>
<trkpt lat="47.38006898" lon="7.27327804"><ele></ele><time>2014-6-18T9:28:2Z</time></trkpt>
<trkpt lat="47.38015297" lon="7.27274696"><ele></ele><time>2014-6-18T9:28:5Z</time></trkpt>
<trkpt lat="47.38023201" lon="7.27225402"><ele></ele><time>2014-6-18T9:28:8Z</time></trkpt>
<trkpt lat="47.38027199" lon="7.27203299"><ele></ele><time>2014-6-18T9:28:11Z</time></trkpt>
<trkpt lat="47.38028297" lon="7.27200600"><ele></ele><time>2014-6-18T9:28:14Z</time></trkpt>
<trkpt lat="47.38030099" lon="7.27197600"><ele></ele><time>2014-6-18T9:28:17Z</time></trkpt>
<trkpt lat="47.38037702" lon="7.27194004"><ele></ele><time>2014-6-18T9:28:20Z</time></trkpt>
<trkpt lat="47.38026897" lon="7.27192202"><ele></ele><time>2014-6-18T9:28:23Z</time></trkpt>
<trkpt lat="47.38027803" lon="7.27188597"><ele></ele><time>2014-6-18T9:28:26Z</time></trkpt>
<trkpt lat="47.38033502" lon="7.27181498"><ele></ele><time>2014-6-18T9:28:29Z</time></trkpt>
<trkpt lat="47.38060098" lon="7.27144903"><ele></ele><time>2014-6-18T9:28:32Z</time></trkpt>
<trkpt lat="47.38087499" lon="7.27106304"><ele></ele><time>2014-6-18T9:28:35Z</time></trkpt>
<trkpt lat="47.38099602" lon="7.27089599"><ele></ele><time>2014-6-18T9:28:38Z</time></trkpt>
<trkpt lat="47.38125402" lon="7.27052500"><ele></ele><time>2014-6-18T9:28:41Z</time></trkpt>
<trkpt lat="47.38148100" lon="7.27000499"><ele></ele><time>2014-6-18T9:28:44Z</time></trkpt>
<trkpt lat="47.38173103" lon="7.26982797"><ele></ele><time>2014-6-18T9:28:47Z</time></trkpt>
<trkpt lat="47.38187402" lon="7.26956603"><ele></ele><time>2014-6-18T9:28:50Z</time></trkpt>
<trkpt lat="47.38200000" lon="7.26893898"><ele></ele><time>2014-6-18T9:28:53Z</time></trkpt>
<trkpt lat="47.38210704" lon="7.26838402"><ele></ele><time>2014-6-18T9:28:56Z</time></trkpt>
<trkpt lat="47.38214401" lon="7.26807799"><ele></ele><time>2014-6-18T9:28:59Z</time></trkpt>
<trkpt lat="47.38218801" lon="7.26768999"><ele></ele><time>2014-6-18T9:29:2Z</time></trkpt>
<trkpt lat="47.38221701" lon="7.26763501"><ele></ele><time>2014-6-18T9:29:5Z</time></trkpt>
<trkpt lat="47.38223403" lon="7.26761598"><ele></ele><time>2014-6-18T9:29:8Z</time></trkpt>
<trkpt lat="47.38239798" lon="7.26723201"><ele></ele><time>2014-6-18T9:29:11Z</time></trkpt>
<trkpt lat="47.38247903" lon="7.26703604"><ele></ele><time>2014-6-18T9:29:14Z</time></trkpt>
<trkpt lat="47.38251499" lon="7.26655902"><ele></ele><time>2014-6-18T9:29:17Z</time></trkpt>
<trkpt lat="47.38252304" lon="7.26599702"><ele></ele><time>2014-6-18T9:29:20Z</time></trkpt>
<trkpt lat="47.38252404" lon="7.26591697"><ele></ele><time>2014-6-18T9:29:23Z</time></trkpt>
<trkpt lat="47.38247400" lon="7.26537801"><ele></ele><time>2014-6-18T9:29:26Z</time></trkpt>
<trkpt lat="47.38243301" lon="7.26504802"><ele></ele><time>2014-6-18T9:29:29Z</time></trkpt>
<trkpt lat="47.38248096" lon="7.26457603"><ele></ele><time>2014-6-18T9:29:32Z</time></trkpt>
<trkpt lat="47.38257400" lon="7.26403800"><ele></ele><time>2014-6-18T9:29:35Z</time></trkpt>
<trkpt lat="47.38259403" lon="7.26372804"><ele></ele><time>2014-6-18T9:29:38Z</time></trkpt>
<trkpt lat="47.38259202" lon="7.26318900"><ele></ele><time>2014-6-18T9:29:41Z</time></trkpt>
<trkpt lat="47.38259596" lon="7.26264099"><ele></ele><time>2014-6-18T9:29:44Z</time></trkpt>
<trkpt lat="47.38261197" lon="7.26210899"><ele></ele><time>2014-6-18T9:29:47Z</time></trkpt>
<trkpt lat="47.38261599" lon="7.26155997"><ele></ele><time>2014-6-18T9:29:50Z</time></trkpt>
<trkpt lat="47.38261499" lon="7.26098799"><ele></ele><time>2014-6-18T9:29:53Z</time></trkpt>
<trkpt lat="47.38262303" lon="7.26045398"><ele></ele><time>2014-6-18T9:29:56Z</time></trkpt>
<trkpt lat="47.38267701" lon="7.25989901"><ele></ele><time>2014-6-18T9:29:59Z</time></trkpt>
<trkpt lat="47.38277902" lon="7.25935897"><ele></ele><time>2014-6-18T9:30:2Z</time></trkpt>
<trkpt lat="47.38288899" lon="7.25885396"><ele></ele><time>2014-6-18T9:30:5Z</time></trkpt>
<trkpt lat="47.38304498" lon="7.25832699"><ele></ele><time>2014-6-18T9:30:8Z</time></trkpt>
<trkpt lat="47.38324899" lon="7.25784796"><ele></ele><time>2014-6-18T9:30:11Z</time></trkpt>
<trkpt lat="47.38345502" lon="7.25739702"><ele></ele><time>2014-6-18T9:30:14Z</time></trkpt>
<trkpt lat="47.38361302" lon="7.25687298"><ele></ele><time>2014-6-18T9:30:17Z</time></trkpt>
<trkpt lat="47.38370203" lon="7.25632497"><ele></ele><time>2014-6-18T9:30:20Z</time></trkpt>
<trkpt lat="47.38378200" lon="7.25580001"><ele></ele><time>2014-6-18T9:30:23Z</time></trkpt>
<trkpt lat="47.38390999" lon="7.25526097"><ele></ele><time>2014-6-18T9:30:26Z</time></trkpt>
<trkpt lat="47.38402700" lon="7.25474901"><ele></ele><time>2014-6-18T9:30:29Z</time></trkpt>
<trkpt lat="47.38412800" lon="7.25422002"><ele></ele><time>2014-6-18T9:30:32Z</time></trkpt>
<trkpt lat="47.38423403" lon="7.25366900"><ele></ele><time>2014-6-18T9:30:35Z</time></trkpt>
<trkpt lat="47.38433604" lon="7.25314496"><ele></ele><time>2014-6-18T9:30:38Z</time></trkpt>
<trkpt lat="47.38443000" lon="7.25258698"><ele></ele><time>2014-6-18T9:30:41Z</time></trkpt>
<trkpt lat="47.38452598" lon="7.25207501"><ele></ele><time>2014-6-18T9:30:44Z</time></trkpt>
<trkpt lat="47.38463704" lon="7.25155902"><ele></ele><time>2014-6-18T9:30:47Z</time></trkpt>
<trkpt lat="47.38473804" lon="7.25102199"><ele></ele><time>2014-6-18T9:30:50Z</time></trkpt>
<trkpt lat="47.38482697" lon="7.25046803"><ele></ele><time>2014-6-18T9:30:53Z</time></trkpt>
<trkpt lat="47.38491900" lon="7.24991499"><ele></ele><time>2014-6-18T9:30:56Z</time></trkpt>
<trkpt lat="47.38498698" lon="7.24938501"><ele></ele><time>2014-6-18T9:30:59Z</time></trkpt>
<trkpt lat="47.38498103" lon="7.24882501"><ele></ele><time>2014-6-18T9:31:2Z</time></trkpt>
<trkpt lat="47.38486997" lon="7.24832000"><ele></ele><time>2014-6-18T9:31:5Z</time></trkpt>
<trkpt lat="47.38473200" lon="7.24781600"><ele></ele><time>2014-6-18T9:31:8Z</time></trkpt>
<trkpt lat="47.38475002" lon="7.24727998"><ele></ele><time>2014-6-18T9:31:11Z</time></trkpt>
<trkpt lat="47.38495999" lon="7.24689902"><ele></ele><time>2014-6-18T9:31:14Z</time></trkpt>
<trkpt lat="47.38499301" lon="7.24670900"><ele></ele><time>2014-6-18T9:31:17Z</time></trkpt>
<trkpt lat="47.38507197" lon="7.24615898"><ele></ele><time>2014-6-18T9:31:20Z</time></trkpt>
<trkpt lat="47.38515696" lon="7.24562204"><ele></ele><time>2014-6-18T9:31:23Z</time></trkpt>
<trkpt lat="47.38526300" lon="7.24509699"><ele></ele><time>2014-6-18T9:31:26Z</time></trkpt>
<trkpt lat="47.38538504" lon="7.24458704"><ele></ele><time>2014-6-18T9:31:29Z</time></trkpt>
<trkpt lat="47.38550498" lon="7.24408404"><ele></ele><time>2014-6-18T9:31:32Z</time></trkpt>
<trkpt lat="47.38562602" lon="7.24358398"><ele></ele><time>2014-6-18T9:31:35Z</time></trkpt>
<trkpt lat="47.38570799" lon="7.24316999"><ele></ele><time>2014-6-18T9:31:38Z</time></trkpt>
<trkpt lat="47.38574596" lon="7.24263003"><ele></ele><time>2014-6-18T9:31:41Z</time></trkpt>
<trkpt lat="47.38572299" lon="7.24209904"><ele></ele><time>2014-6-18T9:31:44Z</time></trkpt>
<trkpt lat="47.38569399" lon="7.24158900"><ele></ele><time>2014-6-18T9:31:47Z</time></trkpt>
<trkpt lat="47.38561998" lon="7.24104602"><ele></ele><time>2014-6-18T9:31:50Z</time></trkpt>
<trkpt lat="47.38545503" lon="7.24056498"><ele></ele><time>2014-6-18T9:31:53Z</time></trkpt>
<trkpt lat="47.38538403" lon="7.24024597"><ele></ele><time>2014-6-18T9:31:56Z</time></trkpt>
<trkpt lat="47.38532402" lon="7.23991798"><ele></ele><time>2014-6-18T9:31:59Z</time></trkpt>
<trkpt lat="47.38524104" lon="7.23937098"><ele></ele><time>2014-6-18T9:32:2Z</time></trkpt>
<trkpt lat="47.38515504" lon="7.23907703"><ele></ele><time>2014-6-18T9:32:5Z</time></trkpt>
<trkpt lat="47.38494398" lon="7.23857202"><ele></ele><time>2014-6-18T9:32:8Z</time></trkpt>
<trkpt lat="47.38488799" lon="7.23840698"><ele></ele><time>2014-6-18T9:32:11Z</time></trkpt>
<trkpt lat="47.38473997" lon="7.23788101"><ele></ele><time>2014-6-18T9:32:14Z</time></trkpt>
<trkpt lat="47.38472496" lon="7.23781404"><ele></ele><time>2014-6-18T9:32:17Z</time></trkpt>
<trkpt lat="47.38464902" lon="7.23729101"><ele></ele><time>2014-6-18T9:32:20Z</time></trkpt>
<trkpt lat="47.38463896" lon="7.23714600"><ele></ele><time>2014-6-18T9:32:23Z</time></trkpt>
<trkpt lat="47.38463201" lon="7.23694199"><ele></ele><time>2014-6-18T9:32:26Z</time></trkpt>
<trkpt lat="47.38462304" lon="7.23642197"><ele></ele><time>2014-6-18T9:32:29Z</time></trkpt>
<trkpt lat="47.38460099" lon="7.23621301"><ele></ele><time>2014-6-18T9:32:32Z</time></trkpt>
<trkpt lat="47.38458096" lon="7.23607496"><ele></ele><time>2014-6-18T9:32:35Z</time></trkpt>
<trkpt lat="47.38455196" lon="7.23582703"><ele></ele><time>2014-6-18T9:32:38Z</time></trkpt>
<trkpt lat="47.38447501" lon="7.23521104"><ele></ele><time>2014-6-18T9:32:41Z</time></trkpt>
<trkpt lat="47.38436999" lon="7.23467804"><ele></ele><time>2014-6-18T9:32:44Z</time></trkpt>
<trkpt lat="47.38426496" lon="7.23410698"><ele></ele><time>2014-6-18T9:32:47Z</time></trkpt>
<trkpt lat="47.38424904" lon="7.23402400"><ele></ele><time>2014-6-18T9:32:50Z</time></trkpt>
<trkpt lat="47.38419397" lon="7.23369098"><ele></ele><time>2014-6-18T9:32:53Z</time></trkpt>
<trkpt lat="47.38415902" lon="7.23352402"><ele></ele><time>2014-6-18T9:32:56Z</time></trkpt>
<trkpt lat="47.38409699" lon="7.23291499"><ele></ele><time>2014-6-18T9:32:59Z</time></trkpt>
<trkpt lat="47.38409498" lon="7.23282899"><ele></ele><time>2014-6-18T9:33:2Z</time></trkpt>
<trkpt lat="47.38407796" lon="7.23265900"><ele></ele><time>2014-6-18T9:33:5Z</time></trkpt>
<trkpt lat="47.38405500" lon="7.23199398"><ele></ele><time>2014-6-18T9:33:8Z</time></trkpt>
<trkpt lat="47.38403404" lon="7.23180103"><ele></ele><time>2014-6-18T9:33:11Z</time></trkpt>
<trkpt lat="47.38402298" lon="7.23148998"><ele></ele><time>2014-6-18T9:33:14Z</time></trkpt>
<trkpt lat="47.38400001" lon="7.23084801"><ele></ele><time>2014-6-18T9:33:17Z</time></trkpt>
<trkpt lat="47.38400504" lon="7.23029103"><ele></ele><time>2014-6-18T9:33:20Z</time></trkpt>
<trkpt lat="47.38401703" lon="7.22975903"><ele></ele><time>2014-6-18T9:33:23Z</time></trkpt>
<trkpt lat="47.38401703" lon="7.22945896"><ele></ele><time>2014-6-18T9:33:26Z</time></trkpt>
<trkpt lat="47.38399599" lon="7.22897599"><ele></ele><time>2014-6-18T9:33:29Z</time></trkpt>
<trkpt lat="47.38399900" lon="7.22869503"><ele></ele><time>2014-6-18T9:33:32Z</time></trkpt>
<trkpt lat="47.38403597" lon="7.22827401"><ele></ele><time>2014-6-18T9:33:35Z</time></trkpt>
<trkpt lat="47.38409397" lon="7.22805801"><ele></ele><time>2014-6-18T9:33:38Z</time></trkpt>
<trkpt lat="47.38412498" lon="7.22764998"><ele></ele><time>2014-6-18T9:33:41Z</time></trkpt>
<trkpt lat="47.38418299" lon="7.22717397"><ele></ele><time>2014-6-18T9:33:44Z</time></trkpt>
<trkpt lat="47.38421098" lon="7.22692000"><ele></ele><time>2014-6-18T9:33:47Z</time></trkpt>
<trkpt lat="47.38421802" lon="7.22683903"><ele></ele><time>2014-6-18T9:33:50Z</time></trkpt>
<trkpt lat="47.38426496" lon="7.22659000"><ele></ele><time>2014-6-18T9:33:53Z</time></trkpt>
<trkpt lat="47.38428801" lon="7.22636797"><ele></ele><time>2014-6-18T9:33:56Z</time></trkpt>
<trkpt lat="47.38432397" lon="7.22613797"><ele></ele><time>2014-6-18T9:33:59Z</time></trkpt>
<trkpt lat="47.38438600" lon="7.22541704"><ele></ele><time>2014-6-18T9:34:2Z</time></trkpt>
<trkpt lat="47.38445800" lon="7.22483600"><ele></ele><time>2014-6-18T9:34:5Z</time></trkpt>
<trkpt lat="47.38451198" lon="7.22422899"><ele></ele><time>2014-6-18T9:34:8Z</time></trkpt>
<trkpt lat="47.38458599" lon="7.22362197"><ele></ele><time>2014-6-18T9:34:11Z</time></trkpt>
<trkpt lat="47.38469998" lon="7.22308603"><ele></ele><time>2014-6-18T9:34:14Z</time></trkpt>
<trkpt lat="47.38481498" lon="7.22252696"><ele></ele><time>2014-6-18T9:34:17Z</time></trkpt>
<trkpt lat="47.38493199" lon="7.22194098"><ele></ele><time>2014-6-18T9:34:20Z</time></trkpt>
<trkpt lat="47.38495999" lon="7.22170603"><ele></ele><time>2014-6-18T9:34:23Z</time></trkpt>
<trkpt lat="47.38503400" lon="7.22112299"><ele></ele><time>2014-6-18T9:34:26Z</time></trkpt>
<trkpt lat="47.38504800" lon="7.22087698"><ele></ele><time>2014-6-18T9:34:29Z</time></trkpt>
<trkpt lat="47.38502696" lon="7.22054103"><ele></ele><time>2014-6-18T9:34:32Z</time></trkpt>
<trkpt lat="47.38510399" lon="7.21992899"><ele></ele><time>2014-6-18T9:34:35Z</time></trkpt>
<trkpt lat="47.38505102" lon="7.21961701"><ele></ele><time>2014-6-18T9:34:38Z</time></trkpt>
<trkpt lat="47.38496603" lon="7.21908200"><ele></ele><time>2014-6-18T9:34:41Z</time></trkpt>
<trkpt lat="47.38492596" lon="7.21906699"><ele></ele><time>2014-6-18T9:34:44Z</time></trkpt>
<trkpt lat="47.38475899" lon="7.21858403"><ele></ele><time>2014-6-18T9:34:47Z</time></trkpt>
<trkpt lat="47.38466403" lon="7.21804901"><ele></ele><time>2014-6-18T9:34:50Z</time></trkpt>
<trkpt lat="47.38457501" lon="7.21753302"><ele></ele><time>2014-6-18T9:34:53Z</time></trkpt>
<trkpt lat="47.38455498" lon="7.21743696"><ele></ele><time>2014-6-18T9:34:56Z</time></trkpt>
<trkpt lat="47.38439798" lon="7.21680597"><ele></ele><time>2014-6-18T9:34:59Z</time></trkpt>
<trkpt lat="47.38427896" lon="7.21635000"><ele></ele><time>2014-6-18T9:35:2Z</time></trkpt>
<trkpt lat="47.38416899" lon="7.21575203"><ele></ele><time>2014-6-18T9:35:5Z</time></trkpt>
<trkpt lat="47.38407897" lon="7.21514703"><ele></ele><time>2014-6-18T9:35:8Z</time></trkpt>
<trkpt lat="47.38404502" lon="7.21451201"><ele></ele><time>2014-6-18T9:35:11Z</time></trkpt>
<trkpt lat="47.38400999" lon="7.21386996"><ele></ele><time>2014-6-18T9:35:14Z</time></trkpt>
<trkpt lat="47.38399196" lon="7.21321098"><ele></ele><time>2014-6-18T9:35:17Z</time></trkpt>
<trkpt lat="47.38399599" lon="7.21266297"><ele></ele><time>2014-6-18T9:35:20Z</time></trkpt>
<trkpt lat="47.38400303" lon="7.21211596"><ele></ele><time>2014-6-18T9:35:23Z</time></trkpt>
<trkpt lat="47.38399900" lon="7.21156896"><ele></ele><time>2014-6-18T9:35:26Z</time></trkpt>
<trkpt lat="47.38405801" lon="7.21100100"><ele></ele><time>2014-6-18T9:35:29Z</time></trkpt>
<trkpt lat="47.38406296" lon="7.21086304"><ele></ele><time>2014-6-18T9:35:32Z</time></trkpt>
<trkpt lat="47.38407997" lon="7.21030598"><ele></ele><time>2014-6-18T9:35:35Z</time></trkpt>
<trkpt lat="47.38411602" lon="7.20974799"><ele></ele><time>2014-6-18T9:35:38Z</time></trkpt>
<trkpt lat="47.38433797" lon="7.20905799"><ele></ele><time>2014-6-18T9:35:41Z</time></trkpt>
<trkpt lat="47.38444098" lon="7.20850403"><ele></ele><time>2014-6-18T9:35:44Z</time></trkpt>
<trkpt lat="47.38449999" lon="7.20793901"><ele></ele><time>2014-6-18T9:35:47Z</time></trkpt>
<trkpt lat="47.38464299" lon="7.20734096"><ele></ele><time>2014-6-18T9:35:50Z</time></trkpt>
<trkpt lat="47.38474701" lon="7.20690996"><ele></ele><time>2014-6-18T9:35:53Z</time></trkpt>
<trkpt lat="47.38486603" lon="7.20636003"><ele></ele><time>2014-6-18T9:35:56Z</time></trkpt>
<trkpt lat="47.38490098" lon="7.20600598"><ele></ele><time>2014-6-18T9:35:59Z</time></trkpt>
<trkpt lat="47.38496703" lon="7.20536702"><ele></ele><time>2014-6-18T9:36:2Z</time></trkpt>
<trkpt lat="47.38505303" lon="7.20484198"><ele></ele><time>2014-6-18T9:36:5Z</time></trkpt>
<trkpt lat="47.38514003" lon="7.20431400"><ele></ele><time>2014-6-18T9:36:8Z</time></trkpt>
<trkpt lat="47.38524003" lon="7.20370900"><ele></ele><time>2014-6-18T9:36:11Z</time></trkpt>
<trkpt lat="47.38528797" lon="7.20341102"><ele></ele><time>2014-6-18T9:36:14Z</time></trkpt>
<trkpt lat="47.38539300" lon="7.20282597"><ele></ele><time>2014-6-18T9:36:17Z</time></trkpt>
<trkpt lat="47.38546601" lon="7.20255800"><ele></ele><time>2014-6-18T9:36:20Z</time></trkpt>
<trkpt lat="47.38564303" lon="7.20227502"><ele></ele><time>2014-6-18T9:36:23Z</time></trkpt>
<trkpt lat="47.38570103" lon="7.20222901"><ele></ele><time>2014-6-18T9:36:26Z</time></trkpt>
<trkpt lat="47.38583900" lon="7.20213102"><ele></ele><time>2014-6-18T9:36:29Z</time></trkpt>
<trkpt lat="47.38591603" lon="7.20191997"><ele></ele><time>2014-6-18T9:36:32Z</time></trkpt>
<trkpt lat="47.38591100" lon="7.20164596"><ele></ele><time>2014-6-18T9:36:35Z</time></trkpt>
<trkpt lat="47.38606003" lon="7.20112000"><ele></ele><time>2014-6-18T9:36:38Z</time></trkpt>
<trkpt lat="47.38630101" lon="7.20066997"><ele></ele><time>2014-6-18T9:36:41Z</time></trkpt>
<trkpt lat="47.38645499" lon="7.20023604"><ele></ele><time>2014-6-18T9:36:44Z</time></trkpt>
<trkpt lat="47.38652204" lon="7.20004099"><ele></ele><time>2014-6-18T9:36:47Z</time></trkpt>
<trkpt lat="47.38653202" lon="7.20001501"><ele></ele><time>2014-6-18T9:36:50Z</time></trkpt>
<trkpt lat="47.38661399" lon="7.19978401"><ele></ele><time>2014-6-18T9:36:53Z</time></trkpt>
<trkpt lat="47.38666998" lon="7.19963900"><ele></ele><time>2014-6-18T9:36:56Z</time></trkpt>
<trkpt lat="47.38676604" lon="7.19940699"><ele></ele><time>2014-6-18T9:36:59Z</time></trkpt>
<trkpt lat="47.38688699" lon="7.19889896"><ele></ele><time>2014-6-18T9:37:2Z</time></trkpt>
<trkpt lat="47.38690702" lon="7.19831298"><ele></ele><time>2014-6-18T9:37:5Z</time></trkpt>
<trkpt lat="47.38690702" lon="7.19815901"><ele></ele><time>2014-6-18T9:37:8Z</time></trkpt>
<trkpt lat="47.38691700" lon="7.19758602"><ele></ele><time>2014-6-18T9:37:11Z</time></trkpt>
<trkpt lat="47.38692203" lon="7.19725099"><ele></ele><time>2014-6-18T9:37:14Z</time></trkpt>
<trkpt lat="47.38693401" lon="7.19670097"><ele></ele><time>2014-6-18T9:37:17Z</time></trkpt>
<trkpt lat="47.38695304" lon="7.19615003"><ele></ele><time>2014-6-18T9:37:20Z</time></trkpt>
<trkpt lat="47.38705899" lon="7.19561803"><ele></ele><time>2014-6-18T9:37:23Z</time></trkpt>
<trkpt lat="47.38725202" lon="7.19514403"><ele></ele><time>2014-6-18T9:37:26Z</time></trkpt>
<trkpt lat="47.38742704" lon="7.19491202"><ele></ele><time>2014-6-18T9:37:29Z</time></trkpt>
<trkpt lat="47.38759803" lon="7.19454397"><ele></ele><time>2014-6-18T9:37:32Z</time></trkpt>
<trkpt lat="47.38762099" lon="7.19399999"><ele></ele><time>2014-6-18T9:37:35Z</time></trkpt>
<trkpt lat="47.38751798" lon="7.19347101"><ele></ele><time>2014-6-18T9:37:38Z</time></trkpt>
<trkpt lat="47.38733500" lon="7.19297103"><ele></ele><time>2014-6-18T9:37:41Z</time></trkpt>
<trkpt lat="47.38712001" lon="7.19249996"><ele></ele><time>2014-6-18T9:37:44Z</time></trkpt>
<trkpt lat="47.38695103" lon="7.19202002"><ele></ele><time>2014-6-18T9:37:47Z</time></trkpt>
<trkpt lat="47.38681700" lon="7.19150302"><ele></ele><time>2014-6-18T9:37:50Z</time></trkpt>
<trkpt lat="47.38652204" lon="7.19123396"><ele></ele><time>2014-6-18T9:37:53Z</time></trkpt>
<trkpt lat="47.38637502" lon="7.19104503"><ele></ele><time>2014-6-18T9:37:56Z</time></trkpt>
<trkpt lat="47.38611200" lon="7.19067598"><ele></ele><time>2014-6-18T9:37:59Z</time></trkpt>
<trkpt lat="47.38587102" lon="7.19057003"><ele></ele><time>2014-6-18T9:38:2Z</time></trkpt>
<trkpt lat="47.38550196" lon="7.19053097"><ele></ele><time>2014-6-18T9:38:5Z</time></trkpt>
<trkpt lat="47.38520902" lon="7.19019603"><ele></ele><time>2014-6-18T9:38:8Z</time></trkpt>
<trkpt lat="47.38495102" lon="7.18982002"><ele></ele><time>2014-6-18T9:38:11Z</time></trkpt>
<trkpt lat="47.38470401" lon="7.18940302"><ele></ele><time>2014-6-18T9:38:14Z</time></trkpt>
<trkpt lat="47.38461399" lon="7.18920202"><ele></ele><time>2014-6-18T9:38:17Z</time></trkpt>
<trkpt lat="47.38451097" lon="7.18897202"><ele></ele><time>2014-6-18T9:38:20Z</time></trkpt>
<trkpt lat="47.38441399" lon="7.18874001"><ele></ele><time>2014-6-18T9:38:23Z</time></trkpt>
<trkpt lat="47.38430897" lon="7.18851303"><ele></ele><time>2014-6-18T9:38:26Z</time></trkpt>
<trkpt lat="47.38419204" lon="7.18825000"><ele></ele><time>2014-6-18T9:38:29Z</time></trkpt>
<trkpt lat="47.38410604" lon="7.18806501"><ele></ele><time>2014-6-18T9:38:32Z</time></trkpt>
<trkpt lat="47.38389004" lon="7.18753603"><ele></ele><time>2014-6-18T9:38:35Z</time></trkpt>
<trkpt lat="47.38384796" lon="7.18743302"><ele></ele><time>2014-6-18T9:38:38Z</time></trkpt>
<trkpt lat="47.38369097" lon="7.18700797"><ele></ele><time>2014-6-18T9:38:41Z</time></trkpt>
<trkpt lat="47.38352803" lon="7.18644002"><ele></ele><time>2014-6-18T9:38:44Z</time></trkpt>
<trkpt lat="47.38348302" lon="7.18624002"><ele></ele><time>2014-6-18T9:38:47Z</time></trkpt>
<trkpt lat="47.38350003" lon="7.18593098"><ele></ele><time>2014-6-18T9:38:50Z</time></trkpt>
<trkpt lat="47.38355502" lon="7.18577500"><ele></ele><time>2014-6-18T9:38:53Z</time></trkpt>
<trkpt lat="47.38356600" lon="7.18542899"><ele></ele><time>2014-6-18T9:38:56Z</time></trkpt>
<trkpt lat="47.38340297" lon="7.18490797"><ele></ele><time>2014-6-18T9:38:59Z</time></trkpt>
<trkpt lat="47.38338402" lon="7.18480898"><ele></ele><time>2014-6-18T9:39:2Z</time></trkpt>
<trkpt lat="47.38337698" lon="7.18474603"><ele></ele><time>2014-6-18T9:39:5Z</time></trkpt>
<trkpt lat="47.38338503" lon="7.18445803"><ele></ele><time>2014-6-18T9:39:8Z</time></trkpt>
<trkpt lat="47.38328202" lon="7.18395503"><ele></ele><time>2014-6-18T9:39:11Z</time></trkpt>
<trkpt lat="47.38323701" lon="7.18376200"><ele></ele><time>2014-6-18T9:39:14Z</time></trkpt>
<trkpt lat="47.38326500" lon="7.18365203"><ele></ele><time>2014-6-18T9:39:17Z</time></trkpt>
<trkpt lat="47.38325603" lon="7.18368002"><ele></ele><time>2014-6-18T9:39:20Z</time></trkpt>
<trkpt lat="47.38320197" lon="7.18355899"><ele></ele><time>2014-6-18T9:39:23Z</time></trkpt>
<trkpt lat="47.38309602" lon="7.18303202"><ele></ele><time>2014-6-18T9:39:26Z</time></trkpt>
<trkpt lat="47.38303098" lon="7.18272700"><ele></ele><time>2014-6-18T9:39:29Z</time></trkpt>
<trkpt lat="47.38298899" lon="7.18253003"><ele></ele><time>2014-6-18T9:39:32Z</time></trkpt>
<trkpt lat="47.38290600" lon="7.18213901"><ele></ele><time>2014-6-18T9:39:35Z</time></trkpt>
<trkpt lat="47.38290600" lon="7.18162503"><ele></ele><time>2014-6-18T9:39:38Z</time></trkpt>
<trkpt lat="47.38285596" lon="7.18127500"><ele></ele><time>2014-6-18T9:39:41Z</time></trkpt>
<trkpt lat="47.38266603" lon="7.18076496"><ele></ele><time>2014-6-18T9:39:44Z</time></trkpt>
<trkpt lat="47.38264499" lon="7.18068299"><ele></ele><time>2014-6-18T9:39:47Z</time></trkpt>
<trkpt lat="47.38259596" lon="7.18031402"><ele></ele><time>2014-6-18T9:39:50Z</time></trkpt>
<trkpt lat="47.38259504" lon="7.18011000"><ele></ele><time>2014-6-18T9:39:53Z</time></trkpt>
<trkpt lat="47.38259001" lon="7.17978202"><ele></ele><time>2014-6-18T9:39:56Z</time></trkpt>
<trkpt lat="47.38269604" lon="7.17926502"><ele></ele><time>2014-6-18T9:39:59Z</time></trkpt>
<trkpt lat="47.38296602" lon="7.17884098"><ele></ele><time>2014-6-18T9:40:2Z</time></trkpt>
<trkpt lat="47.38300500" lon="7.17852700"><ele></ele><time>2014-6-18T9:40:5Z</time></trkpt>
<trkpt lat="47.38279704" lon="7.17827998"><ele></ele><time>2014-6-18T9:40:8Z</time></trkpt>
<trkpt lat="47.38262404" lon="7.17819801"><ele></ele><time>2014-6-18T9:40:11Z</time></trkpt>
<trkpt lat="47.38233201" lon="7.17807001"><ele></ele><time>2014-6-18T9:40:14Z</time></trkpt>
<trkpt lat="47.38228600" lon="7.17808099"><ele></ele><time>2014-6-18T9:40:17Z</time></trkpt>
<trkpt lat="47.38212900" lon="7.17818300"><ele></ele><time>2014-6-18T9:40:20Z</time></trkpt>
<trkpt lat="47.38202599" lon="7.17823799"><ele></ele><time>2014-6-18T9:40:23Z</time></trkpt>
<trkpt lat="47.38175198" lon="7.17805199"><ele></ele><time>2014-6-18T9:40:26Z</time></trkpt>
<trkpt lat="47.38149701" lon="7.17754296"><ele></ele><time>2014-6-18T9:40:29Z</time></trkpt>
<trkpt lat="47.38124404" lon="7.17723501"><ele></ele><time>2014-6-18T9:40:32Z</time></trkpt>
<trkpt lat="47.38113298" lon="7.17708698"><ele></ele><time>2014-6-18T9:40:35Z</time></trkpt>
<trkpt lat="47.38110800" lon="7.17705304"><ele></ele><time>2014-6-18T9:40:38Z</time></trkpt>
<trkpt lat="47.38105402" lon="7.17698900"><ele></ele><time>2014-6-18T9:40:41Z</time></trkpt>
<trkpt lat="47.38095202" lon="7.17687299"><ele></ele><time>2014-6-18T9:40:44Z</time></trkpt>
<trkpt lat="47.38080097" lon="7.17665196"><ele></ele><time>2014-6-18T9:40:47Z</time></trkpt>
<trkpt lat="47.38074498" lon="7.17649296"><ele></ele><time>2014-6-18T9:40:50Z</time></trkpt>
<trkpt lat="47.38068597" lon="7.17595099"><ele></ele><time>2014-6-18T9:40:53Z</time></trkpt>
<trkpt lat="47.38064800" lon="7.17536802"><ele></ele><time>2014-6-18T9:40:56Z</time></trkpt>
<trkpt lat="47.38063602" lon="7.17525001"><ele></ele><time>2014-6-18T9:40:59Z</time></trkpt>
<trkpt lat="47.38056997" lon="7.17479998"><ele></ele><time>2014-6-18T9:41:2Z</time></trkpt>
<trkpt lat="47.38065496" lon="7.17437100"><ele></ele><time>2014-6-18T9:41:5Z</time></trkpt>
<trkpt lat="47.38084003" lon="7.17404997"><ele></ele><time>2014-6-18T9:41:8Z</time></trkpt>
<trkpt lat="47.38087901" lon="7.17387504"><ele></ele><time>2014-6-18T9:41:11Z</time></trkpt>
<trkpt lat="47.38087297" lon="7.17375602"><ele></ele><time>2014-6-18T9:41:14Z</time></trkpt>
<trkpt lat="47.38085797" lon="7.17363699"><ele></ele><time>2014-6-18T9:41:17Z</time></trkpt>
<trkpt lat="47.38082604" lon="7.17332502"><ele></ele><time>2014-6-18T9:41:20Z</time></trkpt>
<trkpt lat="47.38090097" lon="7.17287499"><ele></ele><time>2014-6-18T9:41:23Z</time></trkpt>
<trkpt lat="47.38113902" lon="7.17283099"><ele></ele><time>2014-6-18T9:41:26Z</time></trkpt>
<trkpt lat="47.38129400" lon="7.17272999"><ele></ele><time>2014-6-18T9:41:29Z</time></trkpt>
<trkpt lat="47.38136902" lon="7.17256201"><ele></ele><time>2014-6-18T9:41:32Z</time></trkpt>
<trkpt lat="47.38126500" lon="7.17227099"><ele></ele><time>2014-6-18T9:41:35Z</time></trkpt>
<trkpt lat="47.38117397" lon="7.17213797"><ele></ele><time>2014-6-18T9:41:38Z</time></trkpt>
<trkpt lat="47.38101203" lon="7.17185500"><ele></ele><time>2014-6-18T9:41:41Z</time></trkpt>
<trkpt lat="47.38085403" lon="7.17159399"><ele></ele><time>2014-6-18T9:41:44Z</time></trkpt>
<trkpt lat="47.38071699" lon="7.17145904"><ele></ele><time>2014-6-18T9:41:47Z</time></trkpt>
<trkpt lat="47.38053904" lon="7.17136902"><ele></ele><time>2014-6-18T9:41:50Z</time></trkpt>
<trkpt lat="47.38034600" lon="7.17113298"><ele></ele><time>2014-6-18T9:41:53Z</time></trkpt>
<trkpt lat="47.38017501" lon="7.17053401"><ele></ele><time>2014-6-18T9:41:56Z</time></trkpt>
<trkpt lat="47.38006203" lon="7.17013503"><ele></ele><time>2014-6-18T9:41:59Z</time></trkpt>
<trkpt lat="47.37999899" lon="7.16989397"><ele></ele><time>2014-6-18T9:42:2Z</time></trkpt>
<trkpt lat="47.37993797" lon="7.16965802"><ele></ele><time>2014-6-18T9:42:5Z</time></trkpt>
<trkpt lat="47.38001098" lon="7.16904799"><ele></ele><time>2014-6-18T9:42:8Z</time></trkpt>
<trkpt lat="47.38000100" lon="7.16895000"><ele></ele><time>2014-6-18T9:42:11Z</time></trkpt>
<trkpt lat="47.37997301" lon="7.16885604"><ele></ele><time>2014-6-18T9:42:14Z</time></trkpt>
<trkpt lat="47.37985801" lon="7.16856896"><ele></ele><time>2014-6-18T9:42:17Z</time></trkpt>
<trkpt lat="47.37960496" lon="7.16808801"><ele></ele><time>2014-6-18T9:42:20Z</time></trkpt>
<trkpt lat="47.37933900" lon="7.16759800"><ele></ele><time>2014-6-18T9:42:23Z</time></trkpt>
<trkpt lat="47.37909702" lon="7.16710498"><ele></ele><time>2014-6-18T9:42:26Z</time></trkpt>
<trkpt lat="47.37888797" lon="7.16660399"><ele></ele><time>2014-6-18T9:42:29Z</time></trkpt>
<trkpt lat="47.37879996" lon="7.16640500"><ele></ele><time>2014-6-18T9:42:32Z</time></trkpt>
<trkpt lat="47.37846200" lon="7.16583897"><ele></ele><time>2014-6-18T9:42:35Z</time></trkpt>
<trkpt lat="47.37839897" lon="7.16573697"><ele></ele><time>2014-6-18T9:42:38Z</time></trkpt>
<trkpt lat="47.37814601" lon="7.16533002"><ele></ele><time>2014-6-18T9:42:41Z</time></trkpt>
<trkpt lat="47.37748400" lon="7.16397098"><ele></ele><time>2014-6-18T9:42:44Z</time></trkpt>
<trkpt lat="47.37746598" lon="7.16379496"><ele></ele><time>2014-6-18T9:42:47Z</time></trkpt>
<trkpt lat="47.37746498" lon="7.16353797"><ele></ele><time>2014-6-18T9:42:50Z</time></trkpt>
<trkpt lat="47.37747403" lon="7.16337997"><ele></ele><time>2014-6-18T9:42:53Z</time></trkpt>
<trkpt lat="47.37749004" lon="7.16306197"><ele></ele><time>2014-6-18T9:42:56Z</time></trkpt>
<trkpt lat="47.37751300" lon="7.16249803"><ele></ele><time>2014-6-18T9:42:59Z</time></trkpt>
<trkpt lat="47.37756799" lon="7.16195899"><ele></ele><time>2014-6-18T9:43:2Z</time></trkpt>
<trkpt lat="47.37774300" lon="7.16146798"><ele></ele><time>2014-6-18T9:43:5Z</time></trkpt>
<trkpt lat="47.37783202" lon="7.16128299"><ele></ele><time>2014-6-18T9:43:8Z</time></trkpt>
<trkpt lat="47.37785901" lon="7.16078502"><ele></ele><time>2014-6-18T9:43:11Z</time></trkpt>
<trkpt lat="47.37769397" lon="7.16015797"><ele></ele><time>2014-6-18T9:43:14Z</time></trkpt>
<trkpt lat="47.37753798" lon="7.15963704"><ele></ele><time>2014-6-18T9:43:17Z</time></trkpt>
<trkpt lat="47.37740899" lon="7.15931098"><ele></ele><time>2014-6-18T9:43:20Z</time></trkpt>
<trkpt lat="47.37730002" lon="7.15894301"><ele></ele><time>2014-6-18T9:43:23Z</time></trkpt>
<trkpt lat="47.37727102" lon="7.15870698"><ele></ele><time>2014-6-18T9:43:26Z</time></trkpt>
<trkpt lat="47.37723900" lon="7.15848796"><ele></ele><time>2014-6-18T9:43:29Z</time></trkpt>
<trkpt lat="47.37719902" lon="7.15828302"><ele></ele><time>2014-6-18T9:43:32Z</time></trkpt>
<trkpt lat="47.37717002" lon="7.15817104"><ele></ele><time>2014-6-18T9:43:35Z</time></trkpt>
<trkpt lat="47.37698704" lon="7.15771498"><ele></ele><time>2014-6-18T9:43:38Z</time></trkpt>
<trkpt lat="47.37678898" lon="7.15725800"><ele></ele><time>2014-6-18T9:43:41Z</time></trkpt>
<trkpt lat="47.37662796" lon="7.15685600"><ele></ele><time>2014-6-18T9:43:44Z</time></trkpt>
<trkpt lat="47.37657096" lon="7.15657496"><ele></ele><time>2014-6-18T9:43:47Z</time></trkpt>
<trkpt lat="47.37650902" lon="7.15639399"><ele></ele><time>2014-6-18T9:43:50Z</time></trkpt>
<trkpt lat="47.37637499" lon="7.15589602"><ele></ele><time>2014-6-18T9:43:53Z</time></trkpt>
<trkpt lat="47.37654104" lon="7.15540904"><ele></ele><time>2014-6-18T9:43:56Z</time></trkpt>
<trkpt lat="47.37668504" lon="7.15490797"><ele></ele><time>2014-6-18T9:43:59Z</time></trkpt>
<trkpt lat="47.37681404" lon="7.15438301"><ele></ele><time>2014-6-18T9:44:2Z</time></trkpt>
<trkpt lat="47.37692803" lon="7.15387104"><ele></ele><time>2014-6-18T9:44:5Z</time></trkpt>
<trkpt lat="47.37701898" lon="7.15341498"><ele></ele><time>2014-6-18T9:44:8Z</time></trkpt>
<trkpt lat="47.37721402" lon="7.15296596"><ele></ele><time>2014-6-18T9:44:11Z</time></trkpt>
<trkpt lat="47.37740203" lon="7.15254502"><ele></ele><time>2014-6-18T9:44:14Z</time></trkpt>
<trkpt lat="47.37738702" lon="7.15211797"><ele></ele><time>2014-6-18T9:44:17Z</time></trkpt>
<trkpt lat="47.37726398" lon="7.15193499"><ele></ele><time>2014-6-18T9:44:20Z</time></trkpt>
<trkpt lat="47.37715501" lon="7.15177498"><ele></ele><time>2014-6-18T9:44:23Z</time></trkpt>
<trkpt lat="47.37697899" lon="7.15142503"><ele></ele><time>2014-6-18T9:44:26Z</time></trkpt>
<trkpt lat="47.37678696" lon="7.15096101"><ele></ele><time>2014-6-18T9:44:29Z</time></trkpt>
<trkpt lat="47.37657901" lon="7.15051501"><ele></ele><time>2014-6-18T9:44:32Z</time></trkpt>
<trkpt lat="47.37651296" lon="7.15037696"><ele></ele><time>2014-6-18T9:44:35Z</time></trkpt>
<trkpt lat="47.37644096" lon="7.15020999"><ele></ele><time>2014-6-18T9:44:38Z</time></trkpt>
<trkpt lat="47.37639402" lon="7.15004898"><ele></ele><time>2014-6-18T9:44:41Z</time></trkpt>
<trkpt lat="47.37636200" lon="7.14984798"><ele></ele><time>2014-6-18T9:44:44Z</time></trkpt>
<trkpt lat="47.37632797" lon="7.14965302"><ele></ele><time>2014-6-18T9:44:47Z</time></trkpt>
<trkpt lat="47.37626402" lon="7.14946199"><ele></ele><time>2014-6-18T9:44:50Z</time></trkpt>
<trkpt lat="47.37607098" lon="7.14893402"><ele></ele><time>2014-6-18T9:44:53Z</time></trkpt>
<trkpt lat="47.37593402" lon="7.14841501"><ele></ele><time>2014-6-18T9:44:56Z</time></trkpt>
<trkpt lat="47.37577099" lon="7.14790396"><ele></ele><time>2014-6-18T9:44:59Z</time></trkpt>
<trkpt lat="47.37559699" lon="7.14740901"><ele></ele><time>2014-6-18T9:45:2Z</time></trkpt>
<trkpt lat="47.37550898" lon="7.14718899"><ele></ele><time>2014-6-18T9:45:5Z</time></trkpt>
<trkpt lat="47.37533203" lon="7.14672798"><ele></ele><time>2014-6-18T9:45:8Z</time></trkpt>
<trkpt lat="47.37520203" lon="7.14639103"><ele></ele><time>2014-6-18T9:45:11Z</time></trkpt>
<trkpt lat="47.37517797" lon="7.14632297"><ele></ele><time>2014-6-18T9:45:14Z</time></trkpt>
<trkpt lat="47.37512399" lon="7.14618903"><ele></ele><time>2014-6-18T9:45:17Z</time></trkpt>
<trkpt lat="47.37495099" lon="7.14585098"><ele></ele><time>2014-6-18T9:45:20Z</time></trkpt>
<trkpt lat="47.37465503" lon="7.14544304"><ele></ele><time>2014-6-18T9:45:23Z</time></trkpt>
<trkpt lat="47.37448596" lon="7.14501497"><ele></ele><time>2014-6-18T9:45:26Z</time></trkpt>
<trkpt lat="47.37438496" lon="7.14436403"><ele></ele><time>2014-6-18T9:45:29Z</time></trkpt>
<trkpt lat="47.37437096" lon="7.14424803"><ele></ele><time>2014-6-18T9:45:32Z</time></trkpt>
<trkpt lat="47.37434297" lon="7.14368602"><ele></ele><time>2014-6-18T9:45:35Z</time></trkpt>
<trkpt lat="47.37433601" lon="7.14348896"><ele></ele><time>2014-6-18T9:45:38Z</time></trkpt>
<trkpt lat="47.37425496" lon="7.14318101"><ele></ele><time>2014-6-18T9:45:41Z</time></trkpt>
<trkpt lat="47.37407399" lon="7.14289703"><ele></ele><time>2014-6-18T9:45:44Z</time></trkpt>
<trkpt lat="47.37402102" lon="7.14282202"><ele></ele><time>2014-6-18T9:45:47Z</time></trkpt>
<trkpt lat="47.37393100" lon="7.14268799"><ele></ele><time>2014-6-18T9:45:50Z</time></trkpt>
<trkpt lat="47.37386696" lon="7.14259403"><ele></ele><time>2014-6-18T9:45:53Z</time></trkpt>
<trkpt lat="47.37375297" lon="7.14243704"><ele></ele><time>2014-6-18T9:45:56Z</time></trkpt>
<trkpt lat="47.37348801" lon="7.14204803"><ele></ele><time>2014-6-18T9:45:59Z</time></trkpt>
<trkpt lat="47.37339699" lon="7.14193203"><ele></ele><time>2014-6-18T9:46:2Z</time></trkpt>
<trkpt lat="47.37306196" lon="7.14161804"><ele></ele><time>2014-6-18T9:46:5Z</time></trkpt>
<trkpt lat="47.37290598" lon="7.14148703"><ele></ele><time>2014-6-18T9:46:8Z</time></trkpt>
<trkpt lat="47.37286398" lon="7.14136398"><ele></ele><time>2014-6-18T9:46:11Z</time></trkpt>
<trkpt lat="47.37287597" lon="7.14079200"><ele></ele><time>2014-6-18T9:46:14Z</time></trkpt>
<trkpt lat="47.37280103" lon="7.14045798"><ele></ele><time>2014-6-18T9:46:17Z</time></trkpt>
<trkpt lat="47.37270598" lon="7.14016101"><ele></ele><time>2014-6-18T9:46:20Z</time></trkpt>
<trkpt lat="47.37259199" lon="7.13986496"><ele></ele><time>2014-6-18T9:46:23Z</time></trkpt>
<trkpt lat="47.37234900" lon="7.13941201"><ele></ele><time>2014-6-18T9:46:26Z</time></trkpt>
<trkpt lat="47.37225202" lon="7.13924202"><ele></ele><time>2014-6-18T9:46:29Z</time></trkpt>
<trkpt lat="47.37199302" lon="7.13870902"><ele></ele><time>2014-6-18T9:46:32Z</time></trkpt>
<trkpt lat="47.37182203" lon="7.13814299"><ele></ele><time>2014-6-18T9:46:35Z</time></trkpt>
<trkpt lat="47.37170904" lon="7.13753102"><ele></ele><time>2014-6-18T9:46:38Z</time></trkpt>
<trkpt lat="47.37162497" lon="7.13701403"><ele></ele><time>2014-6-18T9:46:41Z</time></trkpt>
<trkpt lat="47.37162002" lon="7.13694999"><ele></ele><time>2014-6-18T9:46:44Z</time></trkpt>
<trkpt lat="47.37159697" lon="7.13673198"><ele></ele><time>2014-6-18T9:46:47Z</time></trkpt>
<trkpt lat="47.37157099" lon="7.13629100"><ele></ele><time>2014-6-18T9:46:50Z</time></trkpt>
<trkpt lat="47.37154098" lon="7.13609797"><ele></ele><time>2014-6-18T9:46:53Z</time></trkpt>
<trkpt lat="47.37149497" lon="7.13563898"><ele></ele><time>2014-6-18T9:46:56Z</time></trkpt>
<trkpt lat="47.37154802" lon="7.13489299"><ele></ele><time>2014-6-18T9:46:59Z</time></trkpt>
<trkpt lat="47.37158096" lon="7.13464899"><ele></ele><time>2014-6-18T9:47:2Z</time></trkpt>
<trkpt lat="47.37167601" lon="7.13432302"><ele></ele><time>2014-6-18T9:47:5Z</time></trkpt>
<trkpt lat="47.37185103" lon="7.13408698"><ele></ele><time>2014-6-18T9:47:8Z</time></trkpt>
<trkpt lat="47.37221397" lon="7.13394198"><ele></ele><time>2014-6-18T9:47:11Z</time></trkpt>
<trkpt lat="47.37237297" lon="7.13396704"><ele></ele><time>2014-6-18T9:47:14Z</time></trkpt>
<trkpt lat="47.37264404" lon="7.13396796"><ele></ele><time>2014-6-18T9:47:17Z</time></trkpt>
<trkpt lat="47.37279902" lon="7.13392404"><ele></ele><time>2014-6-18T9:47:20Z</time></trkpt>
<trkpt lat="47.37290497" lon="7.13349204"><ele></ele><time>2014-6-18T9:47:23Z</time></trkpt>
<trkpt lat="47.37285996" lon="7.13275602"><ele></ele><time>2014-6-18T9:47:26Z</time></trkpt>
<trkpt lat="47.37266500" lon="7.13205496"><ele></ele><time>2014-6-18T9:47:29Z</time></trkpt>
<trkpt lat="47.37243701" lon="7.13150402"><ele></ele><time>2014-6-18T9:47:32Z</time></trkpt>
<trkpt lat="47.37217600" lon="7.13094000"><ele></ele><time>2014-6-18T9:47:35Z</time></trkpt>
<trkpt lat="47.37186704" lon="7.13042099"><ele></ele><time>2014-6-18T9:47:38Z</time></trkpt>
<trkpt lat="47.37161298" lon="7.13001204"><ele></ele><time>2014-6-18T9:47:41Z</time></trkpt>
<trkpt lat="47.37136597" lon="7.12958599"><ele></ele><time>2014-6-18T9:47:44Z</time></trkpt>
<trkpt lat="47.37104997" lon="7.12913697"><ele></ele><time>2014-6-18T9:47:47Z</time></trkpt>
<trkpt lat="47.37081402" lon="7.12876297"><ele></ele><time>2014-6-18T9:47:50Z</time></trkpt>
<trkpt lat="47.37050800" lon="7.12842400"><ele></ele><time>2014-6-18T9:47:53Z</time></trkpt>
<trkpt lat="47.37021798" lon="7.12792201"><ele></ele><time>2014-6-18T9:47:56Z</time></trkpt>
<trkpt lat="47.37003601" lon="7.12742404"><ele></ele><time>2014-6-18T9:47:59Z</time></trkpt>
<trkpt lat="47.36999301" lon="7.12728800"><ele></ele><time>2014-6-18T9:48:2Z</time></trkpt>
<trkpt lat="47.36983401" lon="7.12673899"><ele></ele><time>2014-6-18T9:48:5Z</time></trkpt>
<trkpt lat="47.36972697" lon="7.12611102"><ele></ele><time>2014-6-18T9:48:8Z</time></trkpt>
<trkpt lat="47.36957501" lon="7.12547801"><ele></ele><time>2014-6-18T9:48:11Z</time></trkpt>
<trkpt lat="47.36951097" lon="7.12506202"><ele></ele><time>2014-6-18T9:48:14Z</time></trkpt>
<trkpt lat="47.36947602" lon="7.12482900"><ele></ele><time>2014-6-18T9:48:17Z</time></trkpt>
<trkpt lat="47.36911400" lon="7.12433900"><ele></ele><time>2014-6-18T9:48:20Z</time></trkpt>
<trkpt lat="47.36905499" lon="7.12422702"><ele></ele><time>2014-6-18T9:48:23Z</time></trkpt>
<trkpt lat="47.36877504" lon="7.12363701"><ele></ele><time>2014-6-18T9:48:26Z</time></trkpt>
<trkpt lat="47.36868703" lon="7.12336997"><ele></ele><time>2014-6-18T9:48:29Z</time></trkpt>
<trkpt lat="47.36839299" lon="7.12270302"><ele></ele><time>2014-6-18T9:48:32Z</time></trkpt>
<trkpt lat="47.36816601" lon="7.12221603"><ele></ele><time>2014-6-18T9:48:35Z</time></trkpt>
<trkpt lat="47.36810801" lon="7.12211402"><ele></ele><time>2014-6-18T9:48:38Z</time></trkpt>
<trkpt lat="47.36793601" lon="7.12178302"><ele></ele><time>2014-6-18T9:48:41Z</time></trkpt>
<trkpt lat="47.36769897" lon="7.12121003"><ele></ele><time>2014-6-18T9:48:44Z</time></trkpt>
<trkpt lat="47.36761699" lon="7.12108003"><ele></ele><time>2014-6-18T9:48:47Z</time></trkpt>
<trkpt lat="47.36737702" lon="7.12056999"><ele></ele><time>2014-6-18T9:48:50Z</time></trkpt>
<trkpt lat="47.36716404" lon="7.12022097"><ele></ele><time>2014-6-18T9:48:53Z</time></trkpt>
<trkpt lat="47.36680001" lon="7.11978301"><ele></ele><time>2014-6-18T9:48:56Z</time></trkpt>
<trkpt lat="47.36649298" lon="7.11941698"><ele></ele><time>2014-6-18T9:48:59Z</time></trkpt>
<trkpt lat="47.36626902" lon="7.11918597"><ele></ele><time>2014-6-18T9:49:2Z</time></trkpt>
<trkpt lat="47.36615402" lon="7.11902998"><ele></ele><time>2014-6-18T9:49:5Z</time></trkpt>
<trkpt lat="47.36607397" lon="7.11848700"><ele></ele><time>2014-6-18T9:49:8Z</time></trkpt>
<trkpt lat="47.36628796" lon="7.11804897"><ele></ele><time>2014-6-18T9:49:11Z</time></trkpt>
<trkpt lat="47.36641897" lon="7.11748101"><ele></ele><time>2014-6-18T9:49:14Z</time></trkpt>
<trkpt lat="47.36637999" lon="7.11740398"><ele></ele><time>2014-6-18T9:49:17Z</time></trkpt>
<trkpt lat="47.36626600" lon="7.11721002"><ele></ele><time>2014-6-18T9:49:20Z</time></trkpt>
<trkpt lat="47.36607196" lon="7.11665899"><ele></ele><time>2014-6-18T9:49:23Z</time></trkpt>
<trkpt lat="47.36600096" lon="7.11607997"><ele></ele><time>2014-6-18T9:49:26Z</time></trkpt>
<trkpt lat="47.36603198" lon="7.11555401"><ele></ele><time>2014-6-18T9:49:29Z</time></trkpt>
<trkpt lat="47.36613097" lon="7.11527498"><ele></ele><time>2014-6-18T9:49:32Z</time></trkpt>
<trkpt lat="47.36642299" lon="7.11479503"><ele></ele><time>2014-6-18T9:49:35Z</time></trkpt>
<trkpt lat="47.36670496" lon="7.11441902"><ele></ele><time>2014-6-18T9:49:38Z</time></trkpt>
<trkpt lat="47.36675198" lon="7.11435104"><ele></ele><time>2014-6-18T9:49:41Z</time></trkpt>
<trkpt lat="47.36702599" lon="7.11377604"><ele></ele><time>2014-6-18T9:49:44Z</time></trkpt>
<trkpt lat="47.36713101" lon="7.11353296"><ele></ele><time>2014-6-18T9:49:47Z</time></trkpt>
<trkpt lat="47.36712003" lon="7.11326097"><ele></ele><time>2014-6-18T9:49:50Z</time></trkpt>
<trkpt lat="47.36700696" lon="7.11305796"><ele></ele><time>2014-6-18T9:49:53Z</time></trkpt>
<trkpt lat="47.36690302" lon="7.11313901"><ele></ele><time>2014-6-18T9:49:56Z</time></trkpt>
<trkpt lat="47.36658200" lon="7.11355400"><ele></ele><time>2014-6-18T9:49:59Z</time></trkpt>
<trkpt lat="47.36631101" lon="7.11370697"><ele></ele><time>2014-6-18T9:50:2Z</time></trkpt>
<trkpt lat="47.36618101" lon="7.11377604"><ele></ele><time>2014-6-18T9:50:5Z</time></trkpt>
<trkpt lat="47.36611202" lon="7.11380797"><ele></ele><time>2014-6-18T9:50:8Z</time></trkpt>
<trkpt lat="47.36588404" lon="7.11383396"><ele></ele><time>2014-6-18T9:50:11Z</time></trkpt>
<trkpt lat="47.36580499" lon="7.11381401"><ele></ele><time>2014-6-18T9:50:14Z</time></trkpt>
<trkpt lat="47.36543904" lon="7.11371996"><ele></ele><time>2014-6-18T9:50:17Z</time></trkpt>
<trkpt lat="47.36511600" lon="7.11325603"><ele></ele><time>2014-6-18T9:50:20Z</time></trkpt>
<trkpt lat="47.36509002" lon="7.11313399"><ele></ele><time>2014-6-18T9:50:23Z</time></trkpt>
<trkpt lat="47.36499002" lon="7.11242303"><ele></ele><time>2014-6-18T9:50:26Z</time></trkpt>
<trkpt lat="47.36487200" lon="7.11173697"><ele></ele><time>2014-6-18T9:50:29Z</time></trkpt>
<trkpt lat="47.36477704" lon="7.11119601"><ele></ele><time>2014-6-18T9:50:32Z</time></trkpt>
<trkpt lat="47.36472096" lon="7.11082804"><ele></ele><time>2014-6-18T9:50:35Z</time></trkpt>
<trkpt lat="47.36460504" lon="7.11025497"><ele></ele><time>2014-6-18T9:50:38Z</time></trkpt>
<trkpt lat="47.36451401" lon="7.10965801"><ele></ele><time>2014-6-18T9:50:41Z</time></trkpt>
<trkpt lat="47.36441997" lon="7.10912802"><ele></ele><time>2014-6-18T9:50:44Z</time></trkpt>
<trkpt lat="47.36434302" lon="7.10861203"><ele></ele><time>2014-6-18T9:50:47Z</time></trkpt>
<trkpt lat="47.36427798" lon="7.10814499"><ele></ele><time>2014-6-18T9:50:50Z</time></trkpt>
<trkpt lat="47.36416399" lon="7.10737696"><ele></ele><time>2014-6-18T9:50:53Z</time></trkpt>
<trkpt lat="47.36414102" lon="7.10707404"><ele></ele><time>2014-6-18T9:50:56Z</time></trkpt>
<trkpt lat="47.36400900" lon="7.10637901"><ele></ele><time>2014-6-18T9:50:59Z</time></trkpt>
<trkpt lat="47.36398302" lon="7.10628698"><ele></ele><time>2014-6-18T9:51:2Z</time></trkpt>
<trkpt lat="47.36378797" lon="7.10619897"><ele></ele><time>2014-6-18T9:51:5Z</time></trkpt>
<trkpt lat="47.36371798" lon="7.10644598"><ele></ele><time>2014-6-18T9:51:8Z</time></trkpt>
<trkpt lat="47.36357398" lon="7.10693196"><ele></ele><time>2014-6-18T9:51:11Z</time></trkpt>
<trkpt lat="47.36331599" lon="7.10710203"><ele></ele><time>2014-6-18T9:51:14Z</time></trkpt>
<trkpt lat="47.36320099" lon="7.10700396"><ele></ele><time>2014-6-18T9:51:17Z</time></trkpt>
<trkpt lat="47.36294199" lon="7.10687002"><ele></ele><time>2014-6-18T9:51:20Z</time></trkpt>
<trkpt lat="47.36284501" lon="7.10680003"><ele></ele><time>2014-6-18T9:51:23Z</time></trkpt>
<trkpt lat="47.36262800" lon="7.10660096"><ele></ele><time>2014-6-18T9:51:26Z</time></trkpt>
<trkpt lat="47.36228501" lon="7.10636904"><ele></ele><time>2014-6-18T9:51:29Z</time></trkpt>
<trkpt lat="47.36191998" lon="7.10622503"><ele></ele><time>2014-6-18T9:51:32Z</time></trkpt>
<trkpt lat="47.36163198" lon="7.10623601"><ele></ele><time>2014-6-18T9:51:35Z</time></trkpt>
<trkpt lat="47.36141598" lon="7.10615203"><ele></ele><time>2014-6-18T9:51:38Z</time></trkpt>
<trkpt lat="47.36131598" lon="7.10606402"><ele></ele><time>2014-6-18T9:51:41Z</time></trkpt>
<trkpt lat="47.36122102" lon="7.10600199"><ele></ele><time>2014-6-18T9:51:44Z</time></trkpt>
<trkpt lat="47.36105698" lon="7.10593997"><ele></ele><time>2014-6-18T9:51:47Z</time></trkpt>
<trkpt lat="47.36097299" lon="7.10587299"><ele></ele><time>2014-6-18T9:51:50Z</time></trkpt>
<trkpt lat="47.36072296" lon="7.10570100"><ele></ele><time>2014-6-18T9:51:53Z</time></trkpt>
<trkpt lat="47.36045801" lon="7.10563201"><ele></ele><time>2014-6-18T9:51:56Z</time></trkpt>
<trkpt lat="47.36040303" lon="7.10562003"><ele></ele><time>2014-6-18T9:51:59Z</time></trkpt>
<trkpt lat="47.35994898" lon="7.10564199"><ele></ele><time>2014-6-18T9:52:2Z</time></trkpt>
<trkpt lat="47.35973298" lon="7.10563000"><ele></ele><time>2014-6-18T9:52:5Z</time></trkpt>
<trkpt lat="47.35934397" lon="7.10547402"><ele></ele><time>2014-6-18T9:52:8Z</time></trkpt>
<trkpt lat="47.35924297" lon="7.10537896"><ele></ele><time>2014-6-18T9:52:11Z</time></trkpt>
<trkpt lat="47.35911498" lon="7.10525198"><ele></ele><time>2014-6-18T9:52:14Z</time></trkpt>
<trkpt lat="47.35888196" lon="7.10497303"><ele></ele><time>2014-6-18T9:52:17Z</time></trkpt>
<trkpt lat="47.35872497" lon="7.10473197"><ele></ele><time>2014-6-18T9:52:20Z</time></trkpt>
<trkpt lat="47.35850603" lon="7.10429703"><ele></ele><time>2014-6-18T9:52:23Z</time></trkpt>
<trkpt lat="47.35847896" lon="7.10421698"><ele></ele><time>2014-6-18T9:52:26Z</time></trkpt>
<trkpt lat="47.35844300" lon="7.10404599"><ele></ele><time>2014-6-18T9:52:29Z</time></trkpt>
<trkpt lat="47.35827997" lon="7.10340201"><ele></ele><time>2014-6-18T9:52:32Z</time></trkpt>
<trkpt lat="47.35816699" lon="7.10294503"><ele></ele><time>2014-6-18T9:52:35Z</time></trkpt>
<trkpt lat="47.35813798" lon="7.10271402"><ele></ele><time>2014-6-18T9:52:38Z</time></trkpt>
<trkpt lat="47.35804897" lon="7.10207096"><ele></ele><time>2014-6-18T9:52:41Z</time></trkpt>
<trkpt lat="47.35800002" lon="7.10150099"><ele></ele><time>2014-6-18T9:52:44Z</time></trkpt>
<trkpt lat="47.35799398" lon="7.10132699"><ele></ele><time>2014-6-18T9:52:47Z</time></trkpt>
<trkpt lat="47.35803296" lon="7.10069298"><ele></ele><time>2014-6-18T9:52:50Z</time></trkpt>
<trkpt lat="47.35804201" lon="7.10053003"><ele></ele><time>2014-6-18T9:52:53Z</time></trkpt>
<trkpt lat="47.35806598" lon="7.10008998"><ele></ele><time>2014-6-18T9:52:56Z</time></trkpt>
<trkpt lat="47.35809398" lon="7.09982998"><ele></ele><time>2014-6-18T9:52:59Z</time></trkpt>
<trkpt lat="47.35815399" lon="7.09935104"><ele></ele><time>2014-6-18T9:53:2Z</time></trkpt>
<trkpt lat="47.35815098" lon="7.09916797"><ele></ele><time>2014-6-18T9:53:5Z</time></trkpt>
<trkpt lat="47.35814100" lon="7.09889699"><ele></ele><time>2014-6-18T9:53:8Z</time></trkpt>
<trkpt lat="47.35810203" lon="7.09852198"><ele></ele><time>2014-6-18T9:53:11Z</time></trkpt>
<trkpt lat="47.35810999" lon="7.09834102"><ele></ele><time>2014-6-18T9:53:14Z</time></trkpt>
<trkpt lat="47.35811502" lon="7.09801001"><ele></ele><time>2014-6-18T9:53:17Z</time></trkpt>
<trkpt lat="47.35807797" lon="7.09774598"><ele></ele><time>2014-6-18T9:53:20Z</time></trkpt>
<trkpt lat="47.35801997" lon="7.09752998"><ele></ele><time>2014-6-18T9:53:23Z</time></trkpt>
<trkpt lat="47.35796297" lon="7.09737500"><ele></ele><time>2014-6-18T9:53:26Z</time></trkpt>
<trkpt lat="47.35788602" lon="7.09716202"><ele></ele><time>2014-6-18T9:53:29Z</time></trkpt>
<trkpt lat="47.35777404" lon="7.09658300"><ele></ele><time>2014-6-18T9:53:32Z</time></trkpt>
<trkpt lat="47.35776499" lon="7.09639097"><ele></ele><time>2014-6-18T9:53:35Z</time></trkpt>
<trkpt lat="47.35777203" lon="7.09628896"><ele></ele><time>2014-6-18T9:53:38Z</time></trkpt>
<trkpt lat="47.35768997" lon="7.09571597"><ele></ele><time>2014-6-18T9:53:41Z</time></trkpt>
<trkpt lat="47.35765301" lon="7.09560298"><ele></ele><time>2014-6-18T9:53:44Z</time></trkpt>
<trkpt lat="47.35762501" lon="7.09546996"><ele></ele><time>2014-6-18T9:53:47Z</time></trkpt>
<trkpt lat="47.35746500" lon="7.09505104"><ele></ele><time>2014-6-18T9:53:50Z</time></trkpt>
<trkpt lat="47.35725797" lon="7.09443798"><ele></ele><time>2014-6-18T9:53:53Z</time></trkpt>
<trkpt lat="47.35717499" lon="7.09419700"><ele></ele><time>2014-6-18T9:53:56Z</time></trkpt>
<trkpt lat="47.35709896" lon="7.09398301"><ele></ele><time>2014-6-18T9:53:59Z</time></trkpt>
<trkpt lat="47.35705303" lon="7.09382904"><ele></ele><time>2014-6-18T9:54:2Z</time></trkpt>
<trkpt lat="47.35691397" lon="7.09333501"><ele></ele><time>2014-6-18T9:54:5Z</time></trkpt>
<trkpt lat="47.35691104" lon="7.09327298"><ele></ele><time>2014-6-18T9:54:8Z</time></trkpt>
<trkpt lat="47.35679696" lon="7.09288297"><ele></ele><time>2014-6-18T9:54:11Z</time></trkpt>
<trkpt lat="47.35661097" lon="7.09234896"><ele></ele><time>2014-6-18T9:54:14Z</time></trkpt>
<trkpt lat="47.35658901" lon="7.09220203"><ele></ele><time>2014-6-18T9:54:17Z</time></trkpt>
<trkpt lat="47.35661801" lon="7.09193297"><ele></ele><time>2014-6-18T9:54:20Z</time></trkpt>
<trkpt lat="47.35656101" lon="7.09138798"><ele></ele><time>2014-6-18T9:54:23Z</time></trkpt>
<trkpt lat="47.35631299" lon="7.09110500"><ele></ele><time>2014-6-18T9:54:26Z</time></trkpt>
<trkpt lat="47.35624703" lon="7.09115697"><ele></ele><time>2014-6-18T9:54:29Z</time></trkpt>
<trkpt lat="47.35623596" lon="7.09120098"><ele></ele><time>2014-6-18T9:54:32Z</time></trkpt>
<trkpt lat="47.35614502" lon="7.09138303"><ele></ele><time>2014-6-18T9:54:35Z</time></trkpt>
<trkpt lat="47.35604703" lon="7.09161303"><ele></ele><time>2014-6-18T9:54:38Z</time></trkpt>
<trkpt lat="47.35594402" lon="7.09192802"><ele></ele><time>2014-6-18T9:54:41Z</time></trkpt>
<trkpt lat="47.35590203" lon="7.09204403"><ele></ele><time>2014-6-18T9:54:44Z</time></trkpt>
<trkpt lat="47.35584302" lon="7.09215903"><ele></ele><time>2014-6-18T9:54:47Z</time></trkpt>
<trkpt lat="47.35560204" lon="7.09232499"><ele></ele><time>2014-6-18T9:54:50Z</time></trkpt>
<trkpt lat="47.35525997" lon="7.09224997"><ele></ele><time>2014-6-18T9:54:53Z</time></trkpt>
<trkpt lat="47.35497801" lon="7.09217403"><ele></ele><time>2014-6-18T9:54:56Z</time></trkpt>
<trkpt lat="47.35490802" lon="7.09216003"><ele></ele><time>2014-6-18T9:54:59Z</time></trkpt>
<trkpt lat="47.35450803" lon="7.09206901"><ele></ele><time>2014-6-18T9:55:2Z</time></trkpt>
<trkpt lat="47.35413001" lon="7.09197203"><ele></ele><time>2014-6-18T9:55:5Z</time></trkpt>
<trkpt lat="47.35383103" lon="7.09190397"><ele></ele><time>2014-6-18T9:55:8Z</time></trkpt>
<trkpt lat="47.35347102" lon="7.09183297"><ele></ele><time>2014-6-18T9:55:11Z</time></trkpt>
<trkpt lat="47.35309501" lon="7.09178402"><ele></ele><time>2014-6-18T9:55:14Z</time></trkpt>
<trkpt lat="47.35270500" lon="7.09171202"><ele></ele><time>2014-6-18T9:55:17Z</time></trkpt>
<trkpt lat="47.35232899" lon="7.09155402"><ele></ele><time>2014-6-18T9:55:20Z</time></trkpt>
<trkpt lat="47.35201500" lon="7.09130097"><ele></ele><time>2014-6-18T9:55:23Z</time></trkpt>
<trkpt lat="47.35172499" lon="7.09097098"><ele></ele><time>2014-6-18T9:55:26Z</time></trkpt>
<trkpt lat="47.35153900" lon="7.09071902"><ele></ele><time>2014-6-18T9:55:29Z</time></trkpt>
<trkpt lat="47.35134303" lon="7.09040998"><ele></ele><time>2014-6-18T9:55:32Z</time></trkpt>
<trkpt lat="47.35110004" lon="7.08998996"><ele></ele><time>2014-6-18T9:55:35Z</time></trkpt>
<trkpt lat="47.35085302" lon="7.08954798"><ele></ele><time>2014-6-18T9:55:38Z</time></trkpt>
<trkpt lat="47.35063501" lon="7.08905898"><ele></ele><time>2014-6-18T9:55:41Z</time></trkpt>
<trkpt lat="47.35045496" lon="7.08857602"><ele></ele><time>2014-6-18T9:55:44Z</time></trkpt>
<trkpt lat="47.35026503" lon="7.08807603"><ele></ele><time>2014-6-18T9:55:47Z</time></trkpt>
<trkpt lat="47.35008901" lon="7.08755703"><ele></ele><time>2014-6-18T9:55:50Z</time></trkpt>
<trkpt lat="47.34994400" lon="7.08701002"><ele></ele><time>2014-6-18T9:55:53Z</time></trkpt>
<trkpt lat="47.34984501" lon="7.08649999"><ele></ele><time>2014-6-18T9:55:56Z</time></trkpt>
<trkpt lat="47.34976999" lon="7.08594401"><ele></ele><time>2014-6-18T9:55:59Z</time></trkpt>
<trkpt lat="47.34969900" lon="7.08534404"><ele></ele><time>2014-6-18T9:56:2Z</time></trkpt>
<trkpt lat="47.34967704" lon="7.08473199"><ele></ele><time>2014-6-18T9:56:5Z</time></trkpt>
<trkpt lat="47.34973303" lon="7.08412204"><ele></ele><time>2014-6-18T9:56:8Z</time></trkpt>
<trkpt lat="47.34978600" lon="7.08359297"><ele></ele><time>2014-6-18T9:56:11Z</time></trkpt>
<trkpt lat="47.34984401" lon="7.08303097"><ele></ele><time>2014-6-18T9:56:14Z</time></trkpt>
<trkpt lat="47.34991802" lon="7.08248899"><ele></ele><time>2014-6-18T9:56:17Z</time></trkpt>
<trkpt lat="47.35003696" lon="7.08188600"><ele></ele><time>2014-6-18T9:56:20Z</time></trkpt>
<trkpt lat="47.35014601" lon="7.08137303"><ele></ele><time>2014-6-18T9:56:23Z</time></trkpt>
<trkpt lat="47.35019797" lon="7.08111302"><ele></ele><time>2014-6-18T9:56:26Z</time></trkpt>
<trkpt lat="47.35032404" lon="7.08049402"><ele></ele><time>2014-6-18T9:56:29Z</time></trkpt>
<trkpt lat="47.35043602" lon="7.07993897"><ele></ele><time>2014-6-18T9:56:32Z</time></trkpt>
<trkpt lat="47.35057298" lon="7.07935098"><ele></ele><time>2014-6-18T9:56:35Z</time></trkpt>
<trkpt lat="47.35084204" lon="7.07883398"><ele></ele><time>2014-6-18T9:56:38Z</time></trkpt>
<trkpt lat="47.35099602" lon="7.07858596"><ele></ele><time>2014-6-18T9:56:41Z</time></trkpt>
<trkpt lat="47.35130296" lon="7.07819704"><ele></ele><time>2014-6-18T9:56:44Z</time></trkpt>
<trkpt lat="47.35161703" lon="7.07793502"><ele></ele><time>2014-6-18T9:56:47Z</time></trkpt>
<trkpt lat="47.35183597" lon="7.07780502"><ele></ele><time>2014-6-18T9:56:50Z</time></trkpt>
<trkpt lat="47.35180101" lon="7.07757996"><ele></ele><time>2014-6-18T9:56:53Z</time></trkpt>
<trkpt lat="47.35159197" lon="7.07738400"><ele></ele><time>2014-6-18T9:56:56Z</time></trkpt>
<trkpt lat="47.35146498" lon="7.07724301"><ele></ele><time>2014-6-18T9:56:59Z</time></trkpt>
<trkpt lat="47.35144001" lon="7.07717403"><ele></ele><time>2014-6-18T9:57:2Z</time></trkpt>
<trkpt lat="47.35120196" lon="7.07671302"><ele></ele><time>2014-6-18T9:57:5Z</time></trkpt>
<trkpt lat="47.35103097" lon="7.07647699"><ele></ele><time>2014-6-18T9:57:8Z</time></trkpt>
<trkpt lat="47.35074900" lon="7.07610399"><ele></ele><time>2014-6-18T9:57:11Z</time></trkpt>
<trkpt lat="47.35046603" lon="7.07572496"><ele></ele><time>2014-6-18T9:57:14Z</time></trkpt>
<trkpt lat="47.35020602" lon="7.07546999"><ele></ele><time>2014-6-18T9:57:17Z</time></trkpt>
<trkpt lat="47.34996303" lon="7.07581499"><ele></ele><time>2014-6-18T9:57:20Z</time></trkpt>
<trkpt lat="47.34974904" lon="7.07625001"><ele></ele><time>2014-6-18T9:57:23Z</time></trkpt>
<trkpt lat="47.34949096" lon="7.07665502"><ele></ele><time>2014-6-18T9:57:26Z</time></trkpt>
<trkpt lat="47.34923498" lon="7.07708401"><ele></ele><time>2014-6-18T9:57:29Z</time></trkpt>
<trkpt lat="47.34894597" lon="7.07746999"><ele></ele><time>2014-6-18T9:57:32Z</time></trkpt>
<trkpt lat="47.34867004" lon="7.07785103"><ele></ele><time>2014-6-18T9:57:35Z</time></trkpt>
<trkpt lat="47.34841699" lon="7.07828698"><ele></ele><time>2014-6-18T9:57:38Z</time></trkpt>
<trkpt lat="47.34817701" lon="7.07869702"><ele></ele><time>2014-6-18T9:57:41Z</time></trkpt>
<trkpt lat="47.34812404" lon="7.07879400"><ele></ele><time>2014-6-18T9:57:44Z</time></trkpt>
<trkpt lat="47.34793704" lon="7.07934704"><ele></ele><time>2014-6-18T9:57:47Z</time></trkpt>
<trkpt lat="47.34775499" lon="7.07985599"><ele></ele><time>2014-6-18T9:57:50Z</time></trkpt>
<trkpt lat="47.34761903" lon="7.08041296"><ele></ele><time>2014-6-18T9:57:53Z</time></trkpt>
<trkpt lat="47.34749104" lon="7.08092401"><ele></ele><time>2014-6-18T9:57:56Z</time></trkpt>
<trkpt lat="47.34736799" lon="7.08145902"><ele></ele><time>2014-6-18T9:57:59Z</time></trkpt>
<trkpt lat="47.34731804" lon="7.08177100"><ele></ele><time>2014-6-18T9:58:2Z</time></trkpt>
<trkpt lat="47.34728401" lon="7.08236402"><ele></ele><time>2014-6-18T9:58:5Z</time></trkpt>
<trkpt lat="47.34728702" lon="7.08291303"><ele></ele><time>2014-6-18T9:58:8Z</time></trkpt>
<trkpt lat="47.34729700" lon="7.08349197"><ele></ele><time>2014-6-18T9:58:11Z</time></trkpt>
<trkpt lat="47.34731301" lon="7.08370001"><ele></ele><time>2014-6-18T9:58:14Z</time></trkpt>
<trkpt lat="47.34733698" lon="7.08389497"><ele></ele><time>2014-6-18T9:58:17Z</time></trkpt>
<trkpt lat="47.34735500" lon="7.08401903"><ele></ele><time>2014-6-18T9:58:20Z</time></trkpt>
<trkpt lat="47.34735802" lon="7.08405297"><ele></ele><time>2014-6-18T9:58:23Z</time></trkpt>
<trkpt lat="47.34737000" lon="7.08447802"><ele></ele><time>2014-6-18T9:58:26Z</time></trkpt>
<trkpt lat="47.34740202" lon="7.08482604"><ele></ele><time>2014-6-18T9:58:29Z</time></trkpt>
<trkpt lat="47.34753102" lon="7.08533800"><ele></ele><time>2014-6-18T9:58:32Z</time></trkpt>
<trkpt lat="47.34762096" lon="7.08587402"><ele></ele><time>2014-6-18T9:58:35Z</time></trkpt>
<trkpt lat="47.34771299" lon="7.08646797"><ele></ele><time>2014-6-18T9:58:38Z</time></trkpt>
<trkpt lat="47.34772900" lon="7.08654902"><ele></ele><time>2014-6-18T9:58:41Z</time></trkpt>
<trkpt lat="47.34794903" lon="7.08713600"><ele></ele><time>2014-6-18T9:58:44Z</time></trkpt>
<trkpt lat="47.34815103" lon="7.08764504"><ele></ele><time>2014-6-18T9:58:47Z</time></trkpt>
<trkpt lat="47.34837399" lon="7.08813999"><ele></ele><time>2014-6-18T9:58:50Z</time></trkpt>
<trkpt lat="47.34854104" lon="7.08873804"><ele></ele><time>2014-6-18T9:58:53Z</time></trkpt>
<trkpt lat="47.34855797" lon="7.08881197"><ele></ele><time>2014-6-18T9:58:56Z</time></trkpt>
<trkpt lat="47.34874799" lon="7.08935503"><ele></ele><time>2014-6-18T9:58:59Z</time></trkpt>
<trkpt lat="47.34884698" lon="7.08961202"><ele></ele><time>2014-6-18T9:59:2Z</time></trkpt>
<trkpt lat="47.34895804" lon="7.08998300"><ele></ele><time>2014-6-18T9:59:5Z</time></trkpt>
<trkpt lat="47.34900800" lon="7.09023303"><ele></ele><time>2014-6-18T9:59:8Z</time></trkpt>
<trkpt lat="47.34921101" lon="7.09079504"><ele></ele><time>2014-6-18T9:59:11Z</time></trkpt>
<trkpt lat="47.34928804" lon="7.09120902"><ele></ele><time>2014-6-18T9:59:14Z</time></trkpt>
<trkpt lat="47.34940102" lon="7.09139200"><ele></ele><time>2014-6-18T9:59:17Z</time></trkpt>
<trkpt lat="47.34970998" lon="7.09165704"><ele></ele><time>2014-6-18T9:59:20Z</time></trkpt>
<trkpt lat="47.34984803" lon="7.09167598"><ele></ele><time>2014-6-18T9:59:23Z</time></trkpt>
<trkpt lat="47.35019001" lon="7.09195602"><ele></ele><time>2014-6-18T9:59:26Z</time></trkpt>
<trkpt lat="47.35034600" lon="7.09215500"><ele></ele><time>2014-6-18T9:59:29Z</time></trkpt>
<trkpt lat="47.35064599" lon="7.09247301"><ele></ele><time>2014-6-18T9:59:32Z</time></trkpt>
<trkpt lat="47.35087196" lon="7.09290401"><ele></ele><time>2014-6-18T9:59:35Z</time></trkpt>
<trkpt lat="47.35103097" lon="7.09312798"><ele></ele><time>2014-6-18T9:59:38Z</time></trkpt>
<trkpt lat="47.35120598" lon="7.09318698"><ele></ele><time>2014-6-18T9:59:41Z</time></trkpt>
<trkpt lat="47.35137999" lon="7.09327801"><ele></ele><time>2014-6-18T9:59:44Z</time></trkpt>
<trkpt lat="47.35180998" lon="7.09334901"><ele></ele><time>2014-6-18T9:59:47Z</time></trkpt>
<trkpt lat="47.35218901" lon="7.09336502"><ele></ele><time>2014-6-18T9:59:50Z</time></trkpt>
<trkpt lat="47.35258799" lon="7.09338597"><ele></ele><time>2014-6-18T9:59:53Z</time></trkpt>
<trkpt lat="47.35298504" lon="7.09340399"><ele></ele><time>2014-6-18T9:59:56Z</time></trkpt>
<trkpt lat="47.35338503" lon="7.09338203"><ele></ele><time>2014-6-18T9:59:59Z</time></trkpt>
<trkpt lat="47.35375299" lon="7.09334398"><ele></ele><time>2014-6-18T10:0:2Z</time></trkpt>
<trkpt lat="47.35413102" lon="7.09329100"><ele></ele><time>2014-6-18T10:0:5Z</time></trkpt>
<trkpt lat="47.35451499" lon="7.09324004"><ele></ele><time>2014-6-18T10:0:8Z</time></trkpt>
<trkpt lat="47.35485303" lon="7.09343802"><ele></ele><time>2014-6-18T10:0:11Z</time></trkpt>
<trkpt lat="47.35517004" lon="7.09384798"><ele></ele><time>2014-6-18T10:0:14Z</time></trkpt>
<trkpt lat="47.35530297" lon="7.09403699"><ele></ele><time>2014-6-18T10:0:17Z</time></trkpt>
<trkpt lat="47.35554999" lon="7.09448199"><ele></ele><time>2014-6-18T10:0:20Z</time></trkpt>
<trkpt lat="47.35575300" lon="7.09492397"><ele></ele><time>2014-6-18T10:0:23Z</time></trkpt>
<trkpt lat="47.35596296" lon="7.09536100"><ele></ele><time>2014-6-18T10:0:26Z</time></trkpt>
<trkpt lat="47.35614602" lon="7.09582804"><ele></ele><time>2014-6-18T10:0:29Z</time></trkpt>
<trkpt lat="47.35627200" lon="7.09634797"><ele></ele><time>2014-6-18T10:0:32Z</time></trkpt>
<trkpt lat="47.35628600" lon="7.09673597"><ele></ele><time>2014-6-18T10:0:35Z</time></trkpt>
<trkpt lat="47.35627502" lon="7.09690302"><ele></ele><time>2014-6-18T10:0:38Z</time></trkpt>
<trkpt lat="47.35625901" lon="7.09695096"><ele></ele><time>2014-6-18T10:0:41Z</time></trkpt>
<trkpt lat="47.35623999" lon="7.09698097"><ele></ele><time>2014-6-18T10:0:44Z</time></trkpt>
<trkpt lat="47.35617201" lon="7.09717602"><ele></ele><time>2014-6-18T10:0:47Z</time></trkpt>
<trkpt lat="47.35594796" lon="7.09771900"><ele></ele><time>2014-6-18T10:0:50Z</time></trkpt>
<trkpt lat="47.35589096" lon="7.09795704"><ele></ele><time>2014-6-18T10:0:53Z</time></trkpt>
<trkpt lat="47.35590203" lon="7.09797196"><ele></ele><time>2014-6-18T10:0:56Z</time></trkpt>
<trkpt lat="47.35579700" lon="7.09833104"><ele></ele><time>2014-6-18T10:0:59Z</time></trkpt>
<trkpt lat="47.35572400" lon="7.09891501"><ele></ele><time>2014-6-18T10:1:2Z</time></trkpt>
<trkpt lat="47.35569801" lon="7.09915297"><ele></ele><time>2014-6-18T10:1:5Z</time></trkpt>
<trkpt lat="47.35564101" lon="7.09973400"><ele></ele><time>2014-6-18T10:1:8Z</time></trkpt>
<trkpt lat="47.35563498" lon="7.09981003"><ele></ele><time>2014-6-18T10:1:11Z</time></trkpt>
<trkpt lat="47.35561696" lon="7.10004003"><ele></ele><time>2014-6-18T10:1:14Z</time></trkpt>
<trkpt lat="47.35556197" lon="7.10039601"><ele></ele><time>2014-6-18T10:1:17Z</time></trkpt>
<trkpt lat="47.35550397" lon="7.10064696"><ele></ele><time>2014-6-18T10:1:20Z</time></trkpt>
<trkpt lat="47.35546902" lon="7.10074897"><ele></ele><time>2014-6-18T10:1:23Z</time></trkpt>
<trkpt lat="47.35546198" lon="7.10081896"><ele></ele><time>2014-6-18T10:1:26Z</time></trkpt>
<trkpt lat="47.35544597" lon="7.10104703"><ele></ele><time>2014-6-18T10:1:29Z</time></trkpt>
<trkpt lat="47.35542803" lon="7.10159596"><ele></ele><time>2014-6-18T10:1:32Z</time></trkpt>
<trkpt lat="47.35538000" lon="7.10215604"><ele></ele><time>2014-6-18T10:1:35Z</time></trkpt>
<trkpt lat="47.35542501" lon="7.10271997"><ele></ele><time>2014-6-18T10:1:38Z</time></trkpt>
<trkpt lat="47.35550003" lon="7.10326999"><ele></ele><time>2014-6-18T10:1:41Z</time></trkpt>
<trkpt lat="47.35558804" lon="7.10381197"><ele></ele><time>2014-6-18T10:1:44Z</time></trkpt>
<trkpt lat="47.35563196" lon="7.10407399"><ele></ele><time>2014-6-18T10:1:47Z</time></trkpt>
<trkpt lat="47.35571201" lon="7.10441697"><ele></ele><time>2014-6-18T10:1:50Z</time></trkpt>
<trkpt lat="47.35582902" lon="7.10475099"><ele></ele><time>2014-6-18T10:1:53Z</time></trkpt>
<trkpt lat="47.35584604" lon="7.10487697"><ele></ele><time>2014-6-18T10:1:56Z</time></trkpt>
<trkpt lat="47.35595098" lon="7.10526103"><ele></ele><time>2014-6-18T10:1:59Z</time></trkpt>
<trkpt lat="47.35605097" lon="7.10555498"><ele></ele><time>2014-6-18T10:2:2Z</time></trkpt>
<trkpt lat="47.35606899" lon="7.10561701"><ele></ele><time>2014-6-18T10:2:5Z</time></trkpt>
<trkpt lat="47.35615801" lon="7.10583603"><ele></ele><time>2014-6-18T10:2:8Z</time></trkpt>
<trkpt lat="47.35617704" lon="7.10589303"><ele></ele><time>2014-6-18T10:2:11Z</time></trkpt>
<trkpt lat="47.35620797" lon="7.10606896"><ele></ele><time>2014-6-18T10:2:14Z</time></trkpt>
<trkpt lat="47.35628801" lon="7.10639200"><ele></ele><time>2014-6-18T10:2:17Z</time></trkpt>
<trkpt lat="47.35630796" lon="7.10652703"><ele></ele><time>2014-6-18T10:2:20Z</time></trkpt>
<trkpt lat="47.35640402" lon="7.10698603"><ele></ele><time>2014-6-18T10:2:23Z</time></trkpt>
<trkpt lat="47.35642003" lon="7.10711301"><ele></ele><time>2014-6-18T10:2:26Z</time></trkpt>
<trkpt lat="47.35643101" lon="7.10724997"><ele></ele><time>2014-6-18T10:2:29Z</time></trkpt>
<trkpt lat="47.35650703" lon="7.10786898"><ele></ele><time>2014-6-18T10:2:32Z</time></trkpt>
<trkpt lat="47.35661197" lon="7.10837499"><ele></ele><time>2014-6-18T10:2:35Z</time></trkpt>
<trkpt lat="47.35666101" lon="7.10858001"><ele></ele><time>2014-6-18T10:2:38Z</time></trkpt>
<trkpt lat="47.35683996" lon="7.10912299"><ele></ele><time>2014-6-18T10:2:41Z</time></trkpt>
<trkpt lat="47.35691900" lon="7.10932198"><ele></ele><time>2014-6-18T10:2:44Z</time></trkpt>
<trkpt lat="47.35713702" lon="7.10985197"><ele></ele><time>2014-6-18T10:2:47Z</time></trkpt>
<trkpt lat="47.35727004" lon="7.11034197"><ele></ele><time>2014-6-18T10:2:50Z</time></trkpt>
<trkpt lat="47.35735503" lon="7.11088696"><ele></ele><time>2014-6-18T10:2:53Z</time></trkpt>
<trkpt lat="47.35745301" lon="7.11141603"><ele></ele><time>2014-6-18T10:2:56Z</time></trkpt>
<trkpt lat="47.35752602" lon="7.11193504"><ele></ele><time>2014-6-18T10:2:59Z</time></trkpt>
<trkpt lat="47.35763700" lon="7.11243996"><ele></ele><time>2014-6-18T10:3:2Z</time></trkpt>
<trkpt lat="47.35774303" lon="7.11298303"><ele></ele><time>2014-6-18T10:3:5Z</time></trkpt>
<trkpt lat="47.35776801" lon="7.11309702"><ele></ele><time>2014-6-18T10:3:8Z</time></trkpt>
<trkpt lat="47.35787999" lon="7.11371301"><ele></ele><time>2014-6-18T10:3:11Z</time></trkpt>
<trkpt lat="47.35791100" lon="7.11392599"><ele></ele><time>2014-6-18T10:3:14Z</time></trkpt>
<trkpt lat="47.35798602" lon="7.11456000"><ele></ele><time>2014-6-18T10:3:17Z</time></trkpt>
<trkpt lat="47.35800597" lon="7.11511496"><ele></ele><time>2014-6-18T10:3:20Z</time></trkpt>
<trkpt lat="47.35800002" lon="7.11570304"><ele></ele><time>2014-6-18T10:3:23Z</time></trkpt>
<trkpt lat="47.35799599" lon="7.11604703"><ele></ele><time>2014-6-18T10:3:26Z</time></trkpt>
<trkpt lat="47.35801804" lon="7.11638499"><ele></ele><time>2014-6-18T10:3:29Z</time></trkpt>
<trkpt lat="47.35808803" lon="7.11680702"><ele></ele><time>2014-6-18T10:3:32Z</time></trkpt>
<trkpt lat="47.35828802" lon="7.11741404"><ele></ele><time>2014-6-18T10:3:35Z</time></trkpt>
<trkpt lat="47.35845499" lon="7.11794000"><ele></ele><time>2014-6-18T10:3:38Z</time></trkpt>
<trkpt lat="47.35847603" lon="7.11801703"><ele></ele><time>2014-6-18T10:3:41Z</time></trkpt>
<trkpt lat="47.35857300" lon="7.11863897"><ele></ele><time>2014-6-18T10:3:44Z</time></trkpt>
<trkpt lat="47.35862497" lon="7.11886796"><ele></ele><time>2014-6-18T10:3:47Z</time></trkpt>
<trkpt lat="47.35876797" lon="7.11922402"><ele></ele><time>2014-6-18T10:3:50Z</time></trkpt>
<trkpt lat="47.35885799" lon="7.11948998"><ele></ele><time>2014-6-18T10:3:53Z</time></trkpt>
<trkpt lat="47.35897701" lon="7.11983196"><ele></ele><time>2014-6-18T10:3:56Z</time></trkpt>
<trkpt lat="47.35913702" lon="7.12042901"><ele></ele><time>2014-6-18T10:3:59Z</time></trkpt>
<trkpt lat="47.35928496" lon="7.12085397"><ele></ele><time>2014-6-18T10:4:2Z</time></trkpt>
<trkpt lat="47.35948797" lon="7.12132604"><ele></ele><time>2014-6-18T10:4:5Z</time></trkpt>
<trkpt lat="47.35968897" lon="7.12186600"><ele></ele><time>2014-6-18T10:4:8Z</time></trkpt>
<trkpt lat="47.35977497" lon="7.12211704"><ele></ele><time>2014-6-18T10:4:11Z</time></trkpt>
<trkpt lat="47.35979903" lon="7.12266798"><ele></ele><time>2014-6-18T10:4:14Z</time></trkpt>
<trkpt lat="47.35977799" lon="7.12285004"><ele></ele><time>2014-6-18T10:4:17Z</time></trkpt>
<trkpt lat="47.35971303" lon="7.12347801"><ele></ele><time>2014-6-18T10:4:20Z</time></trkpt>
<trkpt lat="47.35965704" lon="7.12372402"><ele></ele><time>2014-6-18T10:4:23Z</time></trkpt>
<trkpt lat="47.35941899" lon="7.12422299"><ele></ele><time>2014-6-18T10:4:26Z</time></trkpt>
<trkpt lat="47.35921497" lon="7.12467897"><ele></ele><time>2014-6-18T10:4:29Z</time></trkpt>
<trkpt lat="47.35919796" lon="7.12473798"><ele></ele><time>2014-6-18T10:4:32Z</time></trkpt>
<trkpt lat="47.35902403" lon="7.12529998"><ele></ele><time>2014-6-18T10:4:35Z</time></trkpt>
<trkpt lat="47.35880200" lon="7.12576803"><ele></ele><time>2014-6-18T10:4:38Z</time></trkpt>
<trkpt lat="47.35856596" lon="7.12624102"><ele></ele><time>2014-6-18T10:4:41Z</time></trkpt>
<trkpt lat="47.35842397" lon="7.12654302"><ele></ele><time>2014-6-18T10:4:44Z</time></trkpt>
<trkpt lat="47.35814402" lon="7.12702498"><ele></ele><time>2014-6-18T10:4:47Z</time></trkpt>
<trkpt lat="47.35807898" lon="7.12712598"><ele></ele><time>2014-6-18T10:4:50Z</time></trkpt>
<trkpt lat="47.35779600" lon="7.12761397"><ele></ele><time>2014-6-18T10:4:53Z</time></trkpt>
<trkpt lat="47.35775904" lon="7.12771196"><ele></ele><time>2014-6-18T10:4:56Z</time></trkpt>
<trkpt lat="47.35768603" lon="7.12832300"><ele></ele><time>2014-6-18T10:4:59Z</time></trkpt>
<trkpt lat="47.35763004" lon="7.12885399"><ele></ele><time>2014-6-18T10:5:2Z</time></trkpt>
<trkpt lat="47.35761998" lon="7.12938298"><ele></ele><time>2014-6-18T10:5:5Z</time></trkpt>
<trkpt lat="47.35760397" lon="7.12965304"><ele></ele><time>2014-6-18T10:5:8Z</time></trkpt>
<trkpt lat="47.35761101" lon="7.13000600"><ele></ele><time>2014-6-18T10:5:11Z</time></trkpt>
<trkpt lat="47.35762602" lon="7.13044303"><ele></ele><time>2014-6-18T10:5:14Z</time></trkpt>
<trkpt lat="47.35762401" lon="7.13058301"><ele></ele><time>2014-6-18T10:5:17Z</time></trkpt>
<trkpt lat="47.35761504" lon="7.13100797"><ele></ele><time>2014-6-18T10:5:20Z</time></trkpt>
<trkpt lat="47.35772300" lon="7.13163100"><ele></ele><time>2014-6-18T10:5:23Z</time></trkpt>
<trkpt lat="47.35784998" lon="7.13217398"><ele></ele><time>2014-6-18T10:5:26Z</time></trkpt>
<trkpt lat="47.35795903" lon="7.13271696"><ele></ele><time>2014-6-18T10:5:29Z</time></trkpt>
<trkpt lat="47.35807504" lon="7.13326002"><ele></ele><time>2014-6-18T10:5:32Z</time></trkpt>
<trkpt lat="47.35813698" lon="7.13348801"><ele></ele><time>2014-6-18T10:5:35Z</time></trkpt>
<trkpt lat="47.35835499" lon="7.13405798"><ele></ele><time>2014-6-18T10:5:38Z</time></trkpt>
<trkpt lat="47.35853403" lon="7.13456601"><ele></ele><time>2014-6-18T10:5:41Z</time></trkpt>
<trkpt lat="47.35869798" lon="7.13506096"><ele></ele><time>2014-6-18T10:5:44Z</time></trkpt>
<trkpt lat="47.35879697" lon="7.13557804"><ele></ele><time>2014-6-18T10:5:47Z</time></trkpt>
<trkpt lat="47.35883402" lon="7.13602597"><ele></ele><time>2014-6-18T10:5:50Z</time></trkpt>
<trkpt lat="47.35886302" lon="7.13636904"><ele></ele><time>2014-6-18T10:5:53Z</time></trkpt>
<trkpt lat="47.35885397" lon="7.13676601"><ele></ele><time>2014-6-18T10:5:56Z</time></trkpt>
<trkpt lat="47.35879303" lon="7.13726699"><ele></ele><time>2014-6-18T10:5:59Z</time></trkpt>
<trkpt lat="47.35873503" lon="7.13751300"><ele></ele><time>2014-6-18T10:6:2Z</time></trkpt>
<trkpt lat="47.35870603" lon="7.13770000"><ele></ele><time>2014-6-18T10:6:5Z</time></trkpt>
<trkpt lat="47.35864601" lon="7.13813603"><ele></ele><time>2014-6-18T10:6:8Z</time></trkpt>
<trkpt lat="47.35850704" lon="7.13876098"><ele></ele><time>2014-6-18T10:6:11Z</time></trkpt>
<trkpt lat="47.35846404" lon="7.13904102"><ele></ele><time>2014-6-18T10:6:14Z</time></trkpt>
<trkpt lat="47.35835901" lon="7.13968098"><ele></ele><time>2014-6-18T10:6:17Z</time></trkpt>
<trkpt lat="47.35823404" lon="7.14024902"><ele></ele><time>2014-6-18T10:6:20Z</time></trkpt>
<trkpt lat="47.35812600" lon="7.14075898"><ele></ele><time>2014-6-18T10:6:23Z</time></trkpt>
<trkpt lat="47.35810203" lon="7.14135996"><ele></ele><time>2014-6-18T10:6:26Z</time></trkpt>
<trkpt lat="47.35814502" lon="7.14189003"><ele></ele><time>2014-6-18T10:6:29Z</time></trkpt>
<trkpt lat="47.35818400" lon="7.14233302"><ele></ele><time>2014-6-18T10:6:32Z</time></trkpt>
<trkpt lat="47.35829297" lon="7.14297800"><ele></ele><time>2014-6-18T10:6:35Z</time></trkpt>
<trkpt lat="47.35830604" lon="7.14304900"><ele></ele><time>2014-6-18T10:6:38Z</time></trkpt>
<trkpt lat="47.35843998" lon="7.14366599"><ele></ele><time>2014-6-18T10:6:41Z</time></trkpt>
<trkpt lat="47.35855800" lon="7.14419397"><ele></ele><time>2014-6-18T10:6:44Z</time></trkpt>
<trkpt lat="47.35869798" lon="7.14458004"><ele></ele><time>2014-6-18T10:6:47Z</time></trkpt>
<trkpt lat="47.35889504" lon="7.14506904"><ele></ele><time>2014-6-18T10:6:50Z</time></trkpt>
<trkpt lat="47.35904197" lon="7.14544203"><ele></ele><time>2014-6-18T10:6:53Z</time></trkpt>
<trkpt lat="47.35917700" lon="7.14605802"><ele></ele><time>2014-6-18T10:6:56Z</time></trkpt>
<trkpt lat="47.35926703" lon="7.14639204"><ele></ele><time>2014-6-18T10:6:59Z</time></trkpt>
<trkpt lat="47.35934297" lon="7.14694801"><ele></ele><time>2014-6-18T10:7:2Z</time></trkpt>
<trkpt lat="47.35940700" lon="7.14752502"><ele></ele><time>2014-6-18T10:7:5Z</time></trkpt>
<trkpt lat="47.35946501" lon="7.14797202"><ele></ele><time>2014-6-18T10:7:8Z</time></trkpt>
<trkpt lat="47.35957104" lon="7.14850000"><ele></ele><time>2014-6-18T10:7:11Z</time></trkpt>
<trkpt lat="47.35964899" lon="7.14872296"><ele></ele><time>2014-6-18T10:7:14Z</time></trkpt>
<trkpt lat="47.35967204" lon="7.14885397"><ele></ele><time>2014-6-18T10:7:17Z</time></trkpt>
<trkpt lat="47.35970297" lon="7.14898297"><ele></ele><time>2014-6-18T10:7:20Z</time></trkpt>
<trkpt lat="47.35974697" lon="7.14918497"><ele></ele><time>2014-6-18T10:7:23Z</time></trkpt>
<trkpt lat="47.35993599" lon="7.14975804"><ele></ele><time>2014-6-18T10:7:26Z</time></trkpt>
<trkpt lat="47.36003900" lon="7.14997698"><ele></ele><time>2014-6-18T10:7:29Z</time></trkpt>
<trkpt lat="47.36014302" lon="7.15017596"><ele></ele><time>2014-6-18T10:7:32Z</time></trkpt>
<trkpt lat="47.36040797" lon="7.15069899"><ele></ele><time>2014-6-18T10:7:35Z</time></trkpt>
<trkpt lat="47.36063202" lon="7.15113896"><ele></ele><time>2014-6-18T10:7:38Z</time></trkpt>
<trkpt lat="47.36090703" lon="7.15156702"><ele></ele><time>2014-6-18T10:7:41Z</time></trkpt>
<trkpt lat="47.36118204" lon="7.15199500"><ele></ele><time>2014-6-18T10:7:44Z</time></trkpt>
<trkpt lat="47.36136401" lon="7.15226096"><ele></ele><time>2014-6-18T10:7:47Z</time></trkpt>
<trkpt lat="47.36161304" lon="7.15260403"><ele></ele><time>2014-6-18T10:7:50Z</time></trkpt>
<trkpt lat="47.36188998" lon="7.15296202"><ele></ele><time>2014-6-18T10:7:53Z</time></trkpt>
<trkpt lat="47.36216901" lon="7.15329101"><ele></ele><time>2014-6-18T10:7:56Z</time></trkpt>
<trkpt lat="47.36240404" lon="7.15351003"><ele></ele><time>2014-6-18T10:7:59Z</time></trkpt>
<trkpt lat="47.36267896" lon="7.15388102"><ele></ele><time>2014-6-18T10:8:2Z</time></trkpt>
<trkpt lat="47.36292799" lon="7.15417103"><ele></ele><time>2014-6-18T10:8:5Z</time></trkpt>
<trkpt lat="47.36322002" lon="7.15448803"><ele></ele><time>2014-6-18T10:8:8Z</time></trkpt>
<trkpt lat="47.36352403" lon="7.15477897"><ele></ele><time>2014-6-18T10:8:11Z</time></trkpt>
</trkseg></trk></gpx>